<?xml version="1.0" encoding="utf-8"?>
<gpx xmlns:xsi="http://www.w3.org/2001/XMLSchema-instance" xmlns:xsd="http://www.w3.org/2001/XMLSchema" version="1.1" creator="Shapelink.com" xmlns="http://www.topografix.com/GPX/1/1" xmlns:gpxtpx="http://www.garmin.com/xmlschemas/TrackPointExtension/v1">
  <metadata>
    <name>Cykling 28.05 km, 2019-04-21</name>
    <desc></desc>
    <author><name>Marian Moron</name></author> 
    <time>2019-04-21T14:31:28Z</time>
  </metadata>
  <trk>
    <name>Cykling 28.05 km, 2019-04-21</name>
    <trkseg>
      <trkpt lat="52.261862565717" lon="4.493280020041">
        <ele>0</ele>
        <time>2019-04-21T14:31:28Z</time>
      </trkpt>
      <trkpt lat="52.261989048588" lon="4.493304998103">
        <ele>0</ele>
        <time>2019-04-21T14:31:52Z</time>
      </trkpt>
      <trkpt lat="52.262219969933" lon="4.493379094099">
        <ele>0</ele>
        <time>2019-04-21T14:32:05Z</time>
      </trkpt>
      <trkpt lat="52.262379058395" lon="4.4927319276">
        <ele>0</ele>
        <time>2019-04-21T14:32:21Z</time>
      </trkpt>
      <trkpt lat="52.262835788126" lon="4.493180107793">
        <ele>0</ele>
        <time>2019-04-21T14:32:43Z</time>
      </trkpt>
      <trkpt lat="52.26293855022" lon="4.493253365599">
        <ele>0</ele>
        <time>2019-04-21T14:32:48Z</time>
      </trkpt>
      <trkpt lat="52.262939220772" lon="4.493252611228">
        <ele>0.4</ele>
        <time>2019-04-21T14:33:10Z</time>
      </trkpt>
      <trkpt lat="52.262993619303" lon="4.493277086376">
        <ele>0.4</ele>
        <time>2019-04-21T14:33:17Z</time>
      </trkpt>
      <trkpt lat="52.263521679003" lon="4.493573721817">
        <ele>4.2</ele>
        <time>2019-04-21T14:33:41Z</time>
      </trkpt>
      <trkpt lat="52.26360491127" lon="4.493588473961">
        <ele>4.6</ele>
        <time>2019-04-21T14:33:48Z</time>
      </trkpt>
      <trkpt lat="52.263625698382" lon="4.493528543376">
        <ele>4.4</ele>
        <time>2019-04-21T14:34:40Z</time>
      </trkpt>
      <trkpt lat="52.263702560405" lon="4.493534326887">
        <ele>4</ele>
        <time>2019-04-21T14:34:49Z</time>
      </trkpt>
      <trkpt lat="52.264257777461" lon="4.493610853634">
        <ele>0.6</ele>
        <time>2019-04-21T14:35:08Z</time>
      </trkpt>
      <trkpt lat="52.264803690608" lon="4.493648656003">
        <ele>0</ele>
        <time>2019-04-21T14:35:21Z</time>
      </trkpt>
      <trkpt lat="52.26535756656" lon="4.493708083674">
        <ele>0</ele>
        <time>2019-04-21T14:35:34Z</time>
      </trkpt>
      <trkpt lat="52.265614471795" lon="4.49375032845">
        <ele>0</ele>
        <time>2019-04-21T14:35:42Z</time>
      </trkpt>
      <trkpt lat="52.265363098614" lon="4.493741443636">
        <ele>0</ele>
        <time>2019-04-21T14:35:52Z</time>
      </trkpt>
      <trkpt lat="52.2653542138" lon="4.493641699026">
        <ele>0</ele>
        <time>2019-04-21T14:35:55Z</time>
      </trkpt>
      <trkpt lat="52.265898869662" lon="4.493817216012">
        <ele>0</ele>
        <time>2019-04-21T14:36:10Z</time>
      </trkpt>
      <trkpt lat="52.266265829244" lon="4.493825262636">
        <ele>0</ele>
        <time>2019-04-21T14:36:20Z</time>
      </trkpt>
      <trkpt lat="52.266841498136" lon="4.493886450506">
        <ele>0</ele>
        <time>2019-04-21T14:36:32Z</time>
      </trkpt>
      <trkpt lat="52.26739688283" lon="4.494029361901">
        <ele>0</ele>
        <time>2019-04-21T14:36:45Z</time>
      </trkpt>
      <trkpt lat="52.267459663261" lon="4.494050735746">
        <ele>0</ele>
        <time>2019-04-21T14:36:52Z</time>
      </trkpt>
      <trkpt lat="52.267830478517" lon="4.49423144951">
        <ele>0</ele>
        <time>2019-04-21T14:37:04Z</time>
      </trkpt>
      <trkpt lat="52.268034242506" lon="4.494272772277">
        <ele>0</ele>
        <time>2019-04-21T14:37:09Z</time>
      </trkpt>
      <trkpt lat="52.268504299458" lon="4.494441332286">
        <ele>0</ele>
        <time>2019-04-21T14:37:20Z</time>
      </trkpt>
      <trkpt lat="52.269038980859" lon="4.494576951428">
        <ele>0</ele>
        <time>2019-04-21T14:37:34Z</time>
      </trkpt>
      <trkpt lat="52.269095810141" lon="4.494588350812">
        <ele>0</ele>
        <time>2019-04-21T14:37:37Z</time>
      </trkpt>
      <trkpt lat="52.269155153993" lon="4.494467567633">
        <ele>0</ele>
        <time>2019-04-21T14:37:46Z</time>
      </trkpt>
      <trkpt lat="52.269511720019" lon="4.493681177775">
        <ele>0</ele>
        <time>2019-04-21T14:37:57Z</time>
      </trkpt>
      <trkpt lat="52.269858227765" lon="4.492920352712">
        <ele>0</ele>
        <time>2019-04-21T14:38:08Z</time>
      </trkpt>
      <trkpt lat="52.270238430749" lon="4.492138237623">
        <ele>0</ele>
        <time>2019-04-21T14:38:18Z</time>
      </trkpt>
      <trkpt lat="52.270567923238" lon="4.491393421989">
        <ele>0</ele>
        <time>2019-04-21T14:38:31Z</time>
      </trkpt>
      <trkpt lat="52.270911078224" lon="4.490613486194">
        <ele>0</ele>
        <time>2019-04-21T14:38:43Z</time>
      </trkpt>
      <trkpt lat="52.270976708501" lon="4.490478118509">
        <ele>0</ele>
        <time>2019-04-21T14:38:44Z</time>
      </trkpt>
      <trkpt lat="52.271202433068" lon="4.490016862552">
        <ele>0</ele>
        <time>2019-04-21T14:38:52Z</time>
      </trkpt>
      <trkpt lat="52.271320031125" lon="4.489767668665">
        <ele>0</ele>
        <time>2019-04-21T14:38:56Z</time>
      </trkpt>
      <trkpt lat="52.271349619232" lon="4.489652836635">
        <ele>0</ele>
        <time>2019-04-21T14:38:58Z</time>
      </trkpt>
      <trkpt lat="52.27138163809" lon="4.489617465017">
        <ele>0</ele>
        <time>2019-04-21T14:39:01Z</time>
      </trkpt>
      <trkpt lat="52.271065053727" lon="4.490328669232">
        <ele>0</ele>
        <time>2019-04-21T14:39:14Z</time>
      </trkpt>
      <trkpt lat="52.270725000044" lon="4.491069964468">
        <ele>0</ele>
        <time>2019-04-21T14:39:25Z</time>
      </trkpt>
      <trkpt lat="52.270363321059" lon="4.491824670744">
        <ele>0</ele>
        <time>2019-04-21T14:39:37Z</time>
      </trkpt>
      <trkpt lat="52.270034918217" lon="4.492556662071">
        <ele>0</ele>
        <time>2019-04-21T14:39:48Z</time>
      </trkpt>
      <trkpt lat="52.269687823738" lon="4.493314888745">
        <ele>0</ele>
        <time>2019-04-21T14:40:03Z</time>
      </trkpt>
      <trkpt lat="52.269629988628" lon="4.493445311109">
        <ele>0</ele>
        <time>2019-04-21T14:40:04Z</time>
      </trkpt>
      <trkpt lat="52.269465703388" lon="4.493730714804">
        <ele>0</ele>
        <time>2019-04-21T14:40:12Z</time>
      </trkpt>
      <trkpt lat="52.269442569344" lon="4.493757453065">
        <ele>0</ele>
        <time>2019-04-21T14:42:16Z</time>
      </trkpt>
      <trkpt lat="52.269407784459" lon="4.49383079469">
        <ele>0</ele>
        <time>2019-04-21T14:42:21Z</time>
      </trkpt>
      <trkpt lat="52.269164206445" lon="4.494391795257">
        <ele>0</ele>
        <time>2019-04-21T14:42:33Z</time>
      </trkpt>
      <trkpt lat="52.269151046862" lon="4.494545016389">
        <ele>0</ele>
        <time>2019-04-21T14:43:41Z</time>
      </trkpt>
      <trkpt lat="52.269095307227" lon="4.494543591466">
        <ele>0</ele>
        <time>2019-04-21T14:43:46Z</time>
      </trkpt>
      <trkpt lat="52.268542185646" lon="4.494304204402">
        <ele>0</ele>
        <time>2019-04-21T14:44:02Z</time>
      </trkpt>
      <trkpt lat="52.268195258805" lon="4.494185013784">
        <ele>0</ele>
        <time>2019-04-21T14:44:11Z</time>
      </trkpt>
      <trkpt lat="52.268100459516" lon="4.494147881967">
        <ele>0</ele>
        <time>2019-04-21T14:44:13Z</time>
      </trkpt>
      <trkpt lat="52.267539542768" lon="4.493946129634">
        <ele>0</ele>
        <time>2019-04-21T14:44:25Z</time>
      </trkpt>
      <trkpt lat="52.267010058145" lon="4.493762566024">
        <ele>3.4</ele>
        <time>2019-04-21T14:44:36Z</time>
      </trkpt>
      <trkpt lat="52.266435646538" lon="4.493664078699">
        <ele>1.2</ele>
        <time>2019-04-21T14:44:47Z</time>
      </trkpt>
      <trkpt lat="52.265870874116" lon="4.493653014591">
        <ele>0</ele>
        <time>2019-04-21T14:44:58Z</time>
      </trkpt>
      <trkpt lat="52.265367708659" lon="4.493846385024">
        <ele>0</ele>
        <time>2019-04-21T14:45:11Z</time>
      </trkpt>
      <trkpt lat="52.26524776367" lon="4.494605114612">
        <ele>0</ele>
        <time>2019-04-21T14:45:24Z</time>
      </trkpt>
      <trkpt lat="52.265284979306" lon="4.494623638611">
        <ele>0</ele>
        <time>2019-04-21T14:45:26Z</time>
      </trkpt>
      <trkpt lat="52.265608604465" lon="4.494606707173">
        <ele>0</ele>
        <time>2019-04-21T14:46:03Z</time>
      </trkpt>
      <trkpt lat="52.265623188971" lon="4.494609976114">
        <ele>0</ele>
        <time>2019-04-21T14:46:04Z</time>
      </trkpt>
      <trkpt lat="52.265639030762" lon="4.4946178551">
        <ele>0</ele>
        <time>2019-04-21T14:46:05Z</time>
      </trkpt>
      <trkpt lat="52.266200198967" lon="4.494731429845">
        <ele>0</ele>
        <time>2019-04-21T14:46:20Z</time>
      </trkpt>
      <trkpt lat="52.266810736563" lon="4.494930919065">
        <ele>0</ele>
        <time>2019-04-21T14:46:31Z</time>
      </trkpt>
      <trkpt lat="52.26718733533" lon="4.495041643964">
        <ele>0</ele>
        <time>2019-04-21T14:46:39Z</time>
      </trkpt>
      <trkpt lat="52.2673826336" lon="4.495068717501">
        <ele>0</ele>
        <time>2019-04-21T14:46:43Z</time>
      </trkpt>
      <trkpt lat="52.267494364327" lon="4.494931170522">
        <ele>0</ele>
        <time>2019-04-21T14:46:46Z</time>
      </trkpt>
      <trkpt lat="52.267679520498" lon="4.494071941953">
        <ele>0</ele>
        <time>2019-04-21T14:46:58Z</time>
      </trkpt>
      <trkpt lat="52.267701732533" lon="4.494050065194">
        <ele>0</ele>
        <time>2019-04-21T14:46:59Z</time>
      </trkpt>
      <trkpt lat="52.267834585648" lon="4.494072612505">
        <ele>0</ele>
        <time>2019-04-21T14:47:03Z</time>
      </trkpt>
      <trkpt lat="52.268392233455" lon="4.494339240744">
        <ele>0</ele>
        <time>2019-04-21T14:47:15Z</time>
      </trkpt>
      <trkpt lat="52.268926160485" lon="4.494501765785">
        <ele>0</ele>
        <time>2019-04-21T14:47:26Z</time>
      </trkpt>
      <trkpt lat="52.269496213504" lon="4.494664961378">
        <ele>0</ele>
        <time>2019-04-21T14:47:38Z</time>
      </trkpt>
      <trkpt lat="52.270059309546" lon="4.494735620795">
        <ele>0</ele>
        <time>2019-04-21T14:47:48Z</time>
      </trkpt>
      <trkpt lat="52.270589380902" lon="4.49499168784">
        <ele>0</ele>
        <time>2019-04-21T14:47:58Z</time>
      </trkpt>
      <trkpt lat="52.271085505563" lon="4.495343811459">
        <ele>0</ele>
        <time>2019-04-21T14:48:09Z</time>
      </trkpt>
      <trkpt lat="52.271583222785" lon="4.495737090207">
        <ele>0</ele>
        <time>2019-04-21T14:48:20Z</time>
      </trkpt>
      <trkpt lat="52.272086304423" lon="4.496122825245">
        <ele>0</ele>
        <time>2019-04-21T14:48:31Z</time>
      </trkpt>
      <trkpt lat="52.272590978622" lon="4.496513673242">
        <ele>0</ele>
        <time>2019-04-21T14:48:42Z</time>
      </trkpt>
      <trkpt lat="52.273134041923" lon="4.496853894563">
        <ele>0</ele>
        <time>2019-04-21T14:48:54Z</time>
      </trkpt>
      <trkpt lat="52.273663778003" lon="4.497197384825">
        <ele>0</ele>
        <time>2019-04-21T14:49:05Z</time>
      </trkpt>
      <trkpt lat="52.274169541849" lon="4.497511873713">
        <ele>0</ele>
        <time>2019-04-21T14:49:15Z</time>
      </trkpt>
      <trkpt lat="52.274664241587" lon="4.497813622113">
        <ele>0</ele>
        <time>2019-04-21T14:49:26Z</time>
      </trkpt>
      <trkpt lat="52.275139662955" lon="4.498263311048">
        <ele>0</ele>
        <time>2019-04-21T14:49:37Z</time>
      </trkpt>
      <trkpt lat="52.27562790863" lon="4.498800004105">
        <ele>0</ele>
        <time>2019-04-21T14:49:49Z</time>
      </trkpt>
      <trkpt lat="52.2760495182" lon="4.49940308181">
        <ele>0</ele>
        <time>2019-04-21T14:50:00Z</time>
      </trkpt>
      <trkpt lat="52.276481018412" lon="4.499929129854">
        <ele>0</ele>
        <time>2019-04-21T14:50:11Z</time>
      </trkpt>
      <trkpt lat="52.27652561012" lon="4.499958634142">
        <ele>0</ele>
        <time>2019-04-21T14:50:12Z</time>
      </trkpt>
      <trkpt lat="52.276815456222" lon="4.50002585698">
        <ele>0</ele>
        <time>2019-04-21T14:50:18Z</time>
      </trkpt>
      <trkpt lat="52.277299762404" lon="4.49966794985">
        <ele>0</ele>
        <time>2019-04-21T14:50:33Z</time>
      </trkpt>
      <trkpt lat="52.277644509951" lon="4.498970156675">
        <ele>0</ele>
        <time>2019-04-21T14:50:43Z</time>
      </trkpt>
      <trkpt lat="52.278016917768" lon="4.49822877762">
        <ele>0</ele>
        <time>2019-04-21T14:50:52Z</time>
      </trkpt>
      <trkpt lat="52.278425367755" lon="4.497410033628">
        <ele>0</ele>
        <time>2019-04-21T14:51:02Z</time>
      </trkpt>
      <trkpt lat="52.278808504404" lon="4.496689357866">
        <ele>0</ele>
        <time>2019-04-21T14:51:13Z</time>
      </trkpt>
      <trkpt lat="52.279162136765" lon="4.495991313234">
        <ele>0</ele>
        <time>2019-04-21T14:51:23Z</time>
      </trkpt>
      <trkpt lat="52.279470842142" lon="4.495232835103">
        <ele>0</ele>
        <time>2019-04-21T14:51:34Z</time>
      </trkpt>
      <trkpt lat="52.279530102175" lon="4.495112135743">
        <ele>0</ele>
        <time>2019-04-21T14:51:36Z</time>
      </trkpt>
      <trkpt lat="52.279828162539" lon="4.494332954319">
        <ele>0</ele>
        <time>2019-04-21T14:51:48Z</time>
      </trkpt>
      <trkpt lat="52.2800644483" lon="4.493497781803">
        <ele>0</ele>
        <time>2019-04-21T14:52:01Z</time>
      </trkpt>
      <trkpt lat="52.28014239997" lon="4.493246408622">
        <ele>0</ele>
        <time>2019-04-21T14:52:05Z</time>
      </trkpt>
      <trkpt lat="52.280196211768" lon="4.493129732574">
        <ele>0</ele>
        <time>2019-04-21T14:52:07Z</time>
      </trkpt>
      <trkpt lat="52.280232170119" lon="4.49299344288">
        <ele>0</ele>
        <time>2019-04-21T14:52:09Z</time>
      </trkpt>
      <trkpt lat="52.280421014326" lon="4.492102111634">
        <ele>0</ele>
        <time>2019-04-21T14:52:20Z</time>
      </trkpt>
      <trkpt lat="52.280593430009" lon="4.491244391807">
        <ele>0</ele>
        <time>2019-04-21T14:52:30Z</time>
      </trkpt>
      <trkpt lat="52.28073332392" lon="4.490356413321">
        <ele>0</ele>
        <time>2019-04-21T14:52:40Z</time>
      </trkpt>
      <trkpt lat="52.280875900039" lon="4.489415796503">
        <ele>0</ele>
        <time>2019-04-21T14:52:50Z</time>
      </trkpt>
      <trkpt lat="52.281103468624" lon="4.48858204891">
        <ele>0</ele>
        <time>2019-04-21T14:53:00Z</time>
      </trkpt>
      <trkpt lat="52.281134062559" lon="4.488507198543">
        <ele>0</ele>
        <time>2019-04-21T14:53:01Z</time>
      </trkpt>
      <trkpt lat="52.281449305818" lon="4.48774302072">
        <ele>0</ele>
        <time>2019-04-21T14:53:11Z</time>
      </trkpt>
      <trkpt lat="52.281827580965" lon="4.48703139741">
        <ele>0</ele>
        <time>2019-04-21T14:53:21Z</time>
      </trkpt>
      <trkpt lat="52.282384642039" lon="4.486836015321">
        <ele>0</ele>
        <time>2019-04-21T14:53:32Z</time>
      </trkpt>
      <trkpt lat="52.282881101976" lon="4.486441730745">
        <ele>0</ele>
        <time>2019-04-21T14:53:43Z</time>
      </trkpt>
      <trkpt lat="52.283282762624" lon="4.485846532026">
        <ele>0</ele>
        <time>2019-04-21T14:53:56Z</time>
      </trkpt>
      <trkpt lat="52.283577218771" lon="4.485455684029">
        <ele>0.2</ele>
        <time>2019-04-21T14:54:15Z</time>
      </trkpt>
      <trkpt lat="52.283616865158" lon="4.485292236979">
        <ele>0.2</ele>
        <time>2019-04-21T14:54:21Z</time>
      </trkpt>
      <trkpt lat="52.284135118035" lon="4.485975361829">
        <ele>0</ele>
        <time>2019-04-21T14:54:38Z</time>
      </trkpt>
      <trkpt lat="52.284567959351" lon="4.48650501409">
        <ele>0</ele>
        <time>2019-04-21T14:54:48Z</time>
      </trkpt>
      <trkpt lat="52.285058049044" lon="4.486952942826">
        <ele>0</ele>
        <time>2019-04-21T14:54:57Z</time>
      </trkpt>
      <trkpt lat="52.285175898558" lon="4.487043551165">
        <ele>0</ele>
        <time>2019-04-21T14:54:59Z</time>
      </trkpt>
      <trkpt lat="52.285427858472" lon="4.487299366753">
        <ele>0</ele>
        <time>2019-04-21T14:55:05Z</time>
      </trkpt>
      <trkpt lat="52.285628018244" lon="4.487647215603">
        <ele>0</ele>
        <time>2019-04-21T14:55:11Z</time>
      </trkpt>
      <trkpt lat="52.285903531297" lon="4.488301339079">
        <ele>0</ele>
        <time>2019-04-21T14:55:21Z</time>
      </trkpt>
      <trkpt lat="52.285978214026" lon="4.488399239671">
        <ele>0</ele>
        <time>2019-04-21T14:55:23Z</time>
      </trkpt>
      <trkpt lat="52.28646654352" lon="4.488178963339">
        <ele>0</ele>
        <time>2019-04-21T14:55:37Z</time>
      </trkpt>
      <trkpt lat="52.286757060174" lon="4.487870341781">
        <ele>0</ele>
        <time>2019-04-21T14:55:56Z</time>
      </trkpt>
      <trkpt lat="52.286622111584" lon="4.487990957322">
        <ele>0</ele>
        <time>2019-04-21T14:56:00Z</time>
      </trkpt>
      <trkpt lat="52.286206369344" lon="4.488376273265">
        <ele>0</ele>
        <time>2019-04-21T14:56:09Z</time>
      </trkpt>
      <trkpt lat="52.286102433784" lon="4.488391193047">
        <ele>0</ele>
        <time>2019-04-21T14:56:11Z</time>
      </trkpt>
      <trkpt lat="52.286005287563" lon="4.48835238485">
        <ele>0</ele>
        <time>2019-04-21T14:56:13Z</time>
      </trkpt>
      <trkpt lat="52.28592674916" lon="4.488313911929">
        <ele>0</ele>
        <time>2019-04-21T14:56:18Z</time>
      </trkpt>
      <trkpt lat="52.285905710591" lon="4.488405023182">
        <ele>0.8</ele>
        <time>2019-04-21T14:56:23Z</time>
      </trkpt>
      <trkpt lat="52.28618994082" lon="4.489188311737">
        <ele>0</ele>
        <time>2019-04-21T14:56:36Z</time>
      </trkpt>
      <trkpt lat="52.28644642696" lon="4.489961625831">
        <ele>0</ele>
        <time>2019-04-21T14:56:48Z</time>
      </trkpt>
      <trkpt lat="52.28676661554" lon="4.490748853879">
        <ele>0</ele>
        <time>2019-04-21T14:57:01Z</time>
      </trkpt>
      <trkpt lat="52.286990663727" lon="4.491174151485">
        <ele>0</ele>
        <time>2019-04-21T14:57:08Z</time>
      </trkpt>
      <trkpt lat="52.287038692014" lon="4.491308261885">
        <ele>0</ele>
        <time>2019-04-21T14:57:10Z</time>
      </trkpt>
      <trkpt lat="52.287102645911" lon="4.491423345372">
        <ele>0</ele>
        <time>2019-04-21T14:57:12Z</time>
      </trkpt>
      <trkpt lat="52.287582090591" lon="4.491963894103">
        <ele>0</ele>
        <time>2019-04-21T14:57:24Z</time>
      </trkpt>
      <trkpt lat="52.288089949912" lon="4.492342839802">
        <ele>0</ele>
        <time>2019-04-21T14:57:37Z</time>
      </trkpt>
      <trkpt lat="52.288604850029" lon="4.492651628998">
        <ele>0</ele>
        <time>2019-04-21T14:57:50Z</time>
      </trkpt>
      <trkpt lat="52.288871226811" lon="4.492831588391">
        <ele>0</ele>
        <time>2019-04-21T14:57:57Z</time>
      </trkpt>
      <trkpt lat="52.289386462204" lon="4.493135851361">
        <ele>0</ele>
        <time>2019-04-21T14:58:10Z</time>
      </trkpt>
      <trkpt lat="52.289907816384" lon="4.493447155127">
        <ele>0</ele>
        <time>2019-04-21T14:58:24Z</time>
      </trkpt>
      <trkpt lat="52.290428835288" lon="4.493756028142">
        <ele>0</ele>
        <time>2019-04-21T14:58:38Z</time>
      </trkpt>
      <trkpt lat="52.29063486239" lon="4.493783604593">
        <ele>0</ele>
        <time>2019-04-21T14:58:44Z</time>
      </trkpt>
      <trkpt lat="52.29066000809" lon="4.493655026247">
        <ele>0</ele>
        <time>2019-04-21T14:58:46Z</time>
      </trkpt>
      <trkpt lat="52.290775510672" lon="4.492755229282">
        <ele>0</ele>
        <time>2019-04-21T14:59:01Z</time>
      </trkpt>
      <trkpt lat="52.290963516689" lon="4.491913602703">
        <ele>0</ele>
        <time>2019-04-21T14:59:18Z</time>
      </trkpt>
      <trkpt lat="52.290991596054" lon="4.491858952715">
        <ele>0</ele>
        <time>2019-04-21T14:59:19Z</time>
      </trkpt>
      <trkpt lat="52.291065356774" lon="4.491753005499">
        <ele>0</ele>
        <time>2019-04-21T14:59:21Z</time>
      </trkpt>
      <trkpt lat="52.291545807282" lon="4.491219162288">
        <ele>0</ele>
        <time>2019-04-21T14:59:32Z</time>
      </trkpt>
      <trkpt lat="52.291880077454" lon="4.490694455348">
        <ele>2.8</ele>
        <time>2019-04-21T14:59:56Z</time>
      </trkpt>
      <trkpt lat="52.291901786575" lon="4.490638548075">
        <ele>2.6</ele>
        <time>2019-04-21T15:00:30Z</time>
      </trkpt>
      <trkpt lat="52.291911509579" lon="4.490626310501">
        <ele>2.6</ele>
        <time>2019-04-21T15:00:32Z</time>
      </trkpt>
      <trkpt lat="52.29216204457" lon="4.489795999487">
        <ele>1.8</ele>
        <time>2019-04-21T15:00:48Z</time>
      </trkpt>
      <trkpt lat="52.292301687024" lon="4.488925455353">
        <ele>3</ele>
        <time>2019-04-21T15:01:02Z</time>
      </trkpt>
      <trkpt lat="52.292390786621" lon="4.488395467816">
        <ele>3.2</ele>
        <time>2019-04-21T15:01:10Z</time>
      </trkpt>
      <trkpt lat="52.29270100074" lon="4.48777654832">
        <ele>5.4</ele>
        <time>2019-04-21T15:01:24Z</time>
      </trkpt>
      <trkpt lat="52.292947344781" lon="4.487573371064">
        <ele>6.2</ele>
        <time>2019-04-21T15:01:30Z</time>
      </trkpt>
      <trkpt lat="52.293503651484" lon="4.487449989496">
        <ele>5.8</ele>
        <time>2019-04-21T15:01:46Z</time>
      </trkpt>
      <trkpt lat="52.294073788322" lon="4.487279836926">
        <ele>2.2</ele>
        <time>2019-04-21T15:01:59Z</time>
      </trkpt>
      <trkpt lat="52.294565722033" lon="4.486813719467">
        <ele>0.6</ele>
        <time>2019-04-21T15:02:11Z</time>
      </trkpt>
      <trkpt lat="52.294857495972" lon="4.486083153063">
        <ele>0</ele>
        <time>2019-04-21T15:02:20Z</time>
      </trkpt>
      <trkpt lat="52.294943578085" lon="4.485216632241">
        <ele>0.6</ele>
        <time>2019-04-21T15:02:30Z</time>
      </trkpt>
      <trkpt lat="52.294939890049" lon="4.484434098057">
        <ele>1</ele>
        <time>2019-04-21T15:02:41Z</time>
      </trkpt>
      <trkpt lat="52.294958162591" lon="4.483495576714">
        <ele>0</ele>
        <time>2019-04-21T15:02:52Z</time>
      </trkpt>
      <trkpt lat="52.295088836412" lon="4.482606508581">
        <ele>0</ele>
        <time>2019-04-21T15:03:04Z</time>
      </trkpt>
      <trkpt lat="52.295169973204" lon="4.482314567004">
        <ele>0</ele>
        <time>2019-04-21T15:03:08Z</time>
      </trkpt>
      <trkpt lat="52.295536932786" lon="4.48164099752">
        <ele>2</ele>
        <time>2019-04-21T15:03:19Z</time>
      </trkpt>
      <trkpt lat="52.295987376092" lon="4.481090558147">
        <ele>5</ele>
        <time>2019-04-21T15:03:32Z</time>
      </trkpt>
      <trkpt lat="52.296470508808" lon="4.480672217518">
        <ele>4.4</ele>
        <time>2019-04-21T15:03:43Z</time>
      </trkpt>
      <trkpt lat="52.296626747424" lon="4.480578088781">
        <ele>3.8</ele>
        <time>2019-04-21T15:03:46Z</time>
      </trkpt>
      <trkpt lat="52.297145838491" lon="4.480331241826">
        <ele>1.8</ele>
        <time>2019-04-21T15:03:55Z</time>
      </trkpt>
      <trkpt lat="52.297714634225" lon="4.480094117875">
        <ele>0.4</ele>
        <time>2019-04-21T15:04:05Z</time>
      </trkpt>
      <trkpt lat="52.298077486676" lon="4.479919019984">
        <ele>0</ele>
        <time>2019-04-21T15:04:11Z</time>
      </trkpt>
      <trkpt lat="52.298584340169" lon="4.479433456517">
        <ele>0</ele>
        <time>2019-04-21T15:04:21Z</time>
      </trkpt>
      <trkpt lat="52.299106532539" lon="4.479080746165">
        <ele>0</ele>
        <time>2019-04-21T15:04:31Z</time>
      </trkpt>
      <trkpt lat="52.299664096527" lon="4.478878155642">
        <ele>0</ele>
        <time>2019-04-21T15:04:43Z</time>
      </trkpt>
      <trkpt lat="52.300216463737" lon="4.478673218187">
        <ele>1.4</ele>
        <time>2019-04-21T15:04:58Z</time>
      </trkpt>
      <trkpt lat="52.300696076055" lon="4.478267618046">
        <ele>1.8</ele>
        <time>2019-04-21T15:05:13Z</time>
      </trkpt>
      <trkpt lat="52.301088097518" lon="4.477828657943">
        <ele>0</ele>
        <time>2019-04-21T15:05:30Z</time>
      </trkpt>
      <trkpt lat="52.301147860465" lon="4.477804518071">
        <ele>0</ele>
        <time>2019-04-21T15:05:33Z</time>
      </trkpt>
      <trkpt lat="52.301484729026" lon="4.477047883958">
        <ele>0.2</ele>
        <time>2019-04-21T15:05:53Z</time>
      </trkpt>
      <trkpt lat="52.301524962146" lon="4.476931543186">
        <ele>0</ele>
        <time>2019-04-21T15:05:59Z</time>
      </trkpt>
      <trkpt lat="52.301514820047" lon="4.477214264673">
        <ele>4.2</ele>
        <time>2019-04-21T15:08:07Z</time>
      </trkpt>
      <trkpt lat="52.301517250798" lon="4.477200434538">
        <ele>3.2</ele>
        <time>2019-04-21T15:08:12Z</time>
      </trkpt>
      <trkpt lat="52.301516412608" lon="4.477088033259">
        <ele>0.4</ele>
        <time>2019-04-21T15:19:08Z</time>
      </trkpt>
      <trkpt lat="52.301180801332" lon="4.477883559388">
        <ele>1.6</ele>
        <time>2019-04-21T15:19:28Z</time>
      </trkpt>
      <trkpt lat="52.300924650468" lon="4.478186900349">
        <ele>0.8</ele>
        <time>2019-04-21T15:19:36Z</time>
      </trkpt>
      <trkpt lat="52.300546794416" lon="4.478606079168">
        <ele>1</ele>
        <time>2019-04-21T15:19:46Z</time>
      </trkpt>
      <trkpt lat="52.300023931494" lon="4.478858877272">
        <ele>1.6</ele>
        <time>2019-04-21T15:19:58Z</time>
      </trkpt>
      <trkpt lat="52.299468714438" lon="4.47908284164">
        <ele>0.8</ele>
        <time>2019-04-21T15:20:08Z</time>
      </trkpt>
      <trkpt lat="52.298935122684" lon="4.479363551471">
        <ele>0.2</ele>
        <time>2019-04-21T15:20:16Z</time>
      </trkpt>
      <trkpt lat="52.29843170577" lon="4.47973746803">
        <ele>0</ele>
        <time>2019-04-21T15:20:24Z</time>
      </trkpt>
      <trkpt lat="52.298203047538" lon="4.479900412166">
        <ele>0</ele>
        <time>2019-04-21T15:20:27Z</time>
      </trkpt>
      <trkpt lat="52.298149403378" lon="4.479919271441">
        <ele>0</ele>
        <time>2019-04-21T15:20:29Z</time>
      </trkpt>
      <trkpt lat="52.298017220815" lon="4.479950284471">
        <ele>0</ele>
        <time>2019-04-21T15:20:32Z</time>
      </trkpt>
      <trkpt lat="52.297483545242" lon="4.480182211644">
        <ele>0.4</ele>
        <time>2019-04-21T15:20:43Z</time>
      </trkpt>
      <trkpt lat="52.296931513308" lon="4.480423526545">
        <ele>1.8</ele>
        <time>2019-04-21T15:20:55Z</time>
      </trkpt>
      <trkpt lat="52.296642589215" lon="4.480576580039">
        <ele>2.8</ele>
        <time>2019-04-21T15:21:02Z</time>
      </trkpt>
      <trkpt lat="52.296449805515" lon="4.48068294635">
        <ele>3.6</ele>
        <time>2019-04-21T15:21:07Z</time>
      </trkpt>
      <trkpt lat="52.296330698716" lon="4.48077179449">
        <ele>3.8</ele>
        <time>2019-04-21T15:21:10Z</time>
      </trkpt>
      <trkpt lat="52.295848236552" lon="4.481219807045">
        <ele>4</ele>
        <time>2019-04-21T15:21:21Z</time>
      </trkpt>
      <trkpt lat="52.295411371924" lon="4.481825147863">
        <ele>3.4</ele>
        <time>2019-04-21T15:21:31Z</time>
      </trkpt>
      <trkpt lat="52.295086238023" lon="4.482559486122">
        <ele>0.2</ele>
        <time>2019-04-21T15:21:40Z</time>
      </trkpt>
      <trkpt lat="52.29491549872" lon="4.483440256174">
        <ele>0</ele>
        <time>2019-04-21T15:21:51Z</time>
      </trkpt>
      <trkpt lat="52.294923545344" lon="4.48435254217">
        <ele>0.2</ele>
        <time>2019-04-21T15:22:04Z</time>
      </trkpt>
      <trkpt lat="52.294924551172" lon="4.48526281651">
        <ele>0</ele>
        <time>2019-04-21T15:22:17Z</time>
      </trkpt>
      <trkpt lat="52.294860597275" lon="4.48613621049">
        <ele>0</ele>
        <time>2019-04-21T15:22:26Z</time>
      </trkpt>
      <trkpt lat="52.294545186378" lon="4.486853030578">
        <ele>0.2</ele>
        <time>2019-04-21T15:22:38Z</time>
      </trkpt>
      <trkpt lat="52.29406054492" lon="4.487295511079">
        <ele>3.2</ele>
        <time>2019-04-21T15:22:56Z</time>
      </trkpt>
      <trkpt lat="52.293523097492" lon="4.487454431903">
        <ele>6.2</ele>
        <time>2019-04-21T15:23:13Z</time>
      </trkpt>
      <trkpt lat="52.292964779133" lon="4.487602959171">
        <ele>7</ele>
        <time>2019-04-21T15:23:27Z</time>
      </trkpt>
      <trkpt lat="52.292742323507" lon="4.487744948557">
        <ele>6.4</ele>
        <time>2019-04-21T15:23:32Z</time>
      </trkpt>
      <trkpt lat="52.292629000219" lon="4.487885093925">
        <ele>6</ele>
        <time>2019-04-21T15:23:35Z</time>
      </trkpt>
      <trkpt lat="52.292504445185" lon="4.488075279236">
        <ele>5</ele>
        <time>2019-04-21T15:23:39Z</time>
      </trkpt>
      <trkpt lat="52.292402856557" lon="4.488301422898">
        <ele>4.4</ele>
        <time>2019-04-21T15:23:43Z</time>
      </trkpt>
      <trkpt lat="52.292237649308" lon="4.489184372244">
        <ele>1.2</ele>
        <time>2019-04-21T15:23:55Z</time>
      </trkpt>
      <trkpt lat="52.292164056226" lon="4.489764651181">
        <ele>0</ele>
        <time>2019-04-21T15:24:02Z</time>
      </trkpt>
      <trkpt lat="52.29190891119" lon="4.49062723251">
        <ele>0</ele>
        <time>2019-04-21T15:24:15Z</time>
      </trkpt>
      <trkpt lat="52.291718474422" lon="4.491009279512">
        <ele>0</ele>
        <time>2019-04-21T15:24:21Z</time>
      </trkpt>
      <trkpt lat="52.291278927586" lon="4.491509595123">
        <ele>0</ele>
        <time>2019-04-21T15:24:34Z</time>
      </trkpt>
      <trkpt lat="52.291678157483" lon="4.490941972855">
        <ele>0</ele>
        <time>2019-04-21T15:24:49Z</time>
      </trkpt>
      <trkpt lat="52.291983677738" lon="4.4902173576">
        <ele>0</ele>
        <time>2019-04-21T15:25:03Z</time>
      </trkpt>
      <trkpt lat="52.292052157861" lon="4.490005127892">
        <ele>0</ele>
        <time>2019-04-21T15:25:10Z</time>
      </trkpt>
      <trkpt lat="52.292056600268" lon="4.490051228342">
        <ele>0</ele>
        <time>2019-04-21T15:25:16Z</time>
      </trkpt>
      <trkpt lat="52.292081326873" lon="4.490107973805">
        <ele>0</ele>
        <time>2019-04-21T15:25:19Z</time>
      </trkpt>
      <trkpt lat="52.292114603016" lon="4.49015365516">
        <ele>0</ele>
        <time>2019-04-21T15:25:29Z</time>
      </trkpt>
      <trkpt lat="52.292418614529" lon="4.490708285483">
        <ele>0</ele>
        <time>2019-04-21T15:25:41Z</time>
      </trkpt>
      <trkpt lat="52.293076845136" lon="4.491796088465">
        <ele>3.8</ele>
        <time>2019-04-21T15:26:04Z</time>
      </trkpt>
      <trkpt lat="52.293478338146" lon="4.49244610481">
        <ele>9.2</ele>
        <time>2019-04-21T15:26:18Z</time>
      </trkpt>
      <trkpt lat="52.293858876406" lon="4.493129732574">
        <ele>4.4</ele>
        <time>2019-04-21T15:26:34Z</time>
      </trkpt>
      <trkpt lat="52.294244695263" lon="4.493769523001">
        <ele>0</ele>
        <time>2019-04-21T15:26:46Z</time>
      </trkpt>
      <trkpt lat="52.294618947098" lon="4.494439069173">
        <ele>3.4</ele>
        <time>2019-04-21T15:26:57Z</time>
      </trkpt>
      <trkpt lat="52.294995629684" lon="4.495106771327">
        <ele>3.4</ele>
        <time>2019-04-21T15:27:09Z</time>
      </trkpt>
      <trkpt lat="52.29535638666" lon="4.495802888122">
        <ele>0</ele>
        <time>2019-04-21T15:27:20Z</time>
      </trkpt>
      <trkpt lat="52.295710605754" lon="4.496539908589">
        <ele>0</ele>
        <time>2019-04-21T15:27:32Z</time>
      </trkpt>
      <trkpt lat="52.29601185124" lon="4.497313390321">
        <ele>0.6</ele>
        <time>2019-04-21T15:27:44Z</time>
      </trkpt>
      <trkpt lat="52.296067255599" lon="4.497444818513">
        <ele>1.2</ele>
        <time>2019-04-21T15:27:45Z</time>
      </trkpt>
      <trkpt lat="52.296360873556" lon="4.498200027703">
        <ele>2.8</ele>
        <time>2019-04-21T15:27:57Z</time>
      </trkpt>
      <trkpt lat="52.296688773484" lon="4.498981053145">
        <ele>2.2</ele>
        <time>2019-04-21T15:28:09Z</time>
      </trkpt>
      <trkpt lat="52.296871415085" lon="4.499512549424">
        <ele>0.4</ele>
        <time>2019-04-21T15:28:17Z</time>
      </trkpt>
      <trkpt lat="52.296882143917" lon="4.49967130261">
        <ele>0</ele>
        <time>2019-04-21T15:28:19Z</time>
      </trkpt>
      <trkpt lat="52.296856411484" lon="4.499828379416">
        <ele>0</ele>
        <time>2019-04-21T15:28:21Z</time>
      </trkpt>
      <trkpt lat="52.296793211958" lon="4.499971542268">
        <ele>0</ele>
        <time>2019-04-21T15:28:23Z</time>
      </trkpt>
      <trkpt lat="52.296733029916" lon="4.500131720377">
        <ele>0</ele>
        <time>2019-04-21T15:28:25Z</time>
      </trkpt>
      <trkpt lat="52.296701178696" lon="4.500307656458">
        <ele>0</ele>
        <time>2019-04-21T15:28:27Z</time>
      </trkpt>
      <trkpt lat="52.296702938895" lon="4.500491974439">
        <ele>0</ele>
        <time>2019-04-21T15:28:29Z</time>
      </trkpt>
      <trkpt lat="52.296859764244" lon="4.501418844941">
        <ele>0</ele>
        <time>2019-04-21T15:28:39Z</time>
      </trkpt>
      <trkpt lat="52.296976775568" lon="4.502324760693">
        <ele>0</ele>
        <time>2019-04-21T15:28:50Z</time>
      </trkpt>
      <trkpt lat="52.296867391773" lon="4.503240986182">
        <ele>0</ele>
        <time>2019-04-21T15:29:01Z</time>
      </trkpt>
      <trkpt lat="52.296712158985" lon="4.504103483692">
        <ele>0</ele>
        <time>2019-04-21T15:29:12Z</time>
      </trkpt>
      <trkpt lat="52.296485512409" lon="4.504976374758">
        <ele>0</ele>
        <time>2019-04-21T15:29:25Z</time>
      </trkpt>
      <trkpt lat="52.296209412623" lon="4.505746839006">
        <ele>0</ele>
        <time>2019-04-21T15:29:38Z</time>
      </trkpt>
      <trkpt lat="52.295934821579" lon="4.506551585225">
        <ele>0</ele>
        <time>2019-04-21T15:30:00Z</time>
      </trkpt>
      <trkpt lat="52.295727453373" lon="4.507417938409">
        <ele>0</ele>
        <time>2019-04-21T15:30:18Z</time>
      </trkpt>
      <trkpt lat="52.295600383769" lon="4.508320836677">
        <ele>0</ele>
        <time>2019-04-21T15:30:31Z</time>
      </trkpt>
      <trkpt lat="52.295522935013" lon="4.508873706801">
        <ele>0</ele>
        <time>2019-04-21T15:30:39Z</time>
      </trkpt>
      <trkpt lat="52.295489155956" lon="4.509109741105">
        <ele>0</ele>
        <time>2019-04-21T15:30:42Z</time>
      </trkpt>
      <trkpt lat="52.295310118572" lon="4.509958492299">
        <ele>0</ele>
        <time>2019-04-21T15:30:51Z</time>
      </trkpt>
      <trkpt lat="52.29529352241" lon="4.510942024445">
        <ele>0</ele>
        <time>2019-04-21T15:31:00Z</time>
      </trkpt>
      <trkpt lat="52.295222527717" lon="4.511817430081">
        <ele>0</ele>
        <time>2019-04-21T15:31:09Z</time>
      </trkpt>
      <trkpt lat="52.295199058397" lon="4.512172822641">
        <ele>0</ele>
        <time>2019-04-21T15:31:13Z</time>
      </trkpt>
      <trkpt lat="52.29530358069" lon="4.513085443913">
        <ele>0</ele>
        <time>2019-04-21T15:31:24Z</time>
      </trkpt>
      <trkpt lat="52.295435595615" lon="4.513953138201">
        <ele>0</ele>
        <time>2019-04-21T15:31:35Z</time>
      </trkpt>
      <trkpt lat="52.2955877271" lon="4.514882271816">
        <ele>0</ele>
        <time>2019-04-21T15:31:47Z</time>
      </trkpt>
      <trkpt lat="52.295555205328" lon="4.515416869398">
        <ele>0</ele>
        <time>2019-04-21T15:31:53Z</time>
      </trkpt>
      <trkpt lat="52.295500052426" lon="4.515600181551">
        <ele>0</ele>
        <time>2019-04-21T15:31:55Z</time>
      </trkpt>
      <trkpt lat="52.295119430347" lon="4.516219101047">
        <ele>0</ele>
        <time>2019-04-21T15:32:06Z</time>
      </trkpt>
      <trkpt lat="52.295089255507" lon="4.516265285316">
        <ele>0</ele>
        <time>2019-04-21T15:32:07Z</time>
      </trkpt>
      <trkpt lat="52.294710645084" lon="4.516960396283">
        <ele>0</ele>
        <time>2019-04-21T15:32:18Z</time>
      </trkpt>
      <trkpt lat="52.29436564608" lon="4.517748713978">
        <ele>0</ele>
        <time>2019-04-21T15:32:30Z</time>
      </trkpt>
      <trkpt lat="52.29395577117" lon="4.518332345675">
        <ele>0.8</ele>
        <time>2019-04-21T15:32:41Z</time>
      </trkpt>
      <trkpt lat="52.293533658686" lon="4.518972639016">
        <ele>0</ele>
        <time>2019-04-21T15:32:53Z</time>
      </trkpt>
      <trkpt lat="52.293334337104" lon="4.519837818734">
        <ele>0</ele>
        <time>2019-04-21T15:33:05Z</time>
      </trkpt>
      <trkpt lat="52.293337354588" lon="4.519911411816">
        <ele>0</ele>
        <time>2019-04-21T15:33:06Z</time>
      </trkpt>
      <trkpt lat="52.293357554967" lon="4.520832750264">
        <ele>0</ele>
        <time>2019-04-21T15:33:17Z</time>
      </trkpt>
      <trkpt lat="52.293151024951" lon="4.521672197549">
        <ele>0</ele>
        <time>2019-04-21T15:33:30Z</time>
      </trkpt>
      <trkpt lat="52.292909458593" lon="4.522506699513">
        <ele>0</ele>
        <time>2019-04-21T15:33:42Z</time>
      </trkpt>
      <trkpt lat="52.292556748241" lon="4.523167696147">
        <ele>0</ele>
        <time>2019-04-21T15:33:57Z</time>
      </trkpt>
      <trkpt lat="52.292327838552" lon="4.523836990862">
        <ele>0</ele>
        <time>2019-04-21T15:34:15Z</time>
      </trkpt>
      <trkpt lat="52.292370334785" lon="4.524006137604">
        <ele>0</ele>
        <time>2019-04-21T15:34:43Z</time>
      </trkpt>
      <trkpt lat="52.292263130284" lon="4.524342251794">
        <ele>0</ele>
        <time>2019-04-21T15:34:49Z</time>
      </trkpt>
      <trkpt lat="52.291900110195" lon="4.52505756314">
        <ele>0</ele>
        <time>2019-04-21T15:35:01Z</time>
      </trkpt>
      <trkpt lat="52.291874293943" lon="4.52541127932">
        <ele>0</ele>
        <time>2019-04-21T15:35:22Z</time>
      </trkpt>
      <trkpt lat="52.291872366106" lon="4.525453859372">
        <ele>0</ele>
        <time>2019-04-21T15:35:24Z</time>
      </trkpt>
      <trkpt lat="52.291596182501" lon="4.526236980289">
        <ele>0</ele>
        <time>2019-04-21T15:35:43Z</time>
      </trkpt>
      <trkpt lat="52.29145209764" lon="4.526391374887">
        <ele>0</ele>
        <time>2019-04-21T15:35:46Z</time>
      </trkpt>
      <trkpt lat="52.291321172362" lon="4.526594887419">
        <ele>0</ele>
        <time>2019-04-21T15:35:51Z</time>
      </trkpt>
      <trkpt lat="52.291046748956" lon="4.527392006109">
        <ele>0</ele>
        <time>2019-04-21T15:36:06Z</time>
      </trkpt>
      <trkpt lat="52.290734607" lon="4.528130283861">
        <ele>0</ele>
        <time>2019-04-21T15:36:21Z</time>
      </trkpt>
      <trkpt lat="52.290320708778" lon="4.528721878363">
        <ele>0</ele>
        <time>2019-04-21T15:36:34Z</time>
      </trkpt>
      <trkpt lat="52.289796001838" lon="4.529141979191">
        <ele>0</ele>
        <time>2019-04-21T15:36:46Z</time>
      </trkpt>
      <trkpt lat="52.289282526644" lon="4.529427382886">
        <ele>0</ele>
        <time>2019-04-21T15:36:56Z</time>
      </trkpt>
      <trkpt lat="52.288760250455" lon="4.529723599232">
        <ele>0</ele>
        <time>2019-04-21T15:37:07Z</time>
      </trkpt>
      <trkpt lat="52.288218863534" lon="4.530043284898">
        <ele>0</ele>
        <time>2019-04-21T15:37:19Z</time>
      </trkpt>
      <trkpt lat="52.287707399996" lon="4.530372274473">
        <ele>0</ele>
        <time>2019-04-21T15:37:30Z</time>
      </trkpt>
      <trkpt lat="52.287199708313" lon="4.53066924519">
        <ele>0</ele>
        <time>2019-04-21T15:37:41Z</time>
      </trkpt>
      <trkpt lat="52.286670139871" lon="4.531014747108">
        <ele>0</ele>
        <time>2019-04-21T15:37:52Z</time>
      </trkpt>
      <trkpt lat="52.286635271167" lon="4.531052046563">
        <ele>0</ele>
        <time>2019-04-21T15:37:53Z</time>
      </trkpt>
      <trkpt lat="52.286626134896" lon="4.531210045378">
        <ele>0</ele>
        <time>2019-04-21T15:37:56Z</time>
      </trkpt>
      <trkpt lat="52.286762508409" lon="4.531445492949">
        <ele>0</ele>
        <time>2019-04-21T15:37:59Z</time>
      </trkpt>
      <trkpt lat="52.287196942286" lon="4.531984700576">
        <ele>0</ele>
        <time>2019-04-21T15:38:17Z</time>
      </trkpt>
      <trkpt lat="52.287299285285" lon="4.532103053004">
        <ele>0</ele>
        <time>2019-04-21T15:38:25Z</time>
      </trkpt>
      <trkpt lat="52.287428366545" lon="4.532044044428">
        <ele>0</ele>
        <time>2019-04-21T15:43:33Z</time>
      </trkpt>
      <trkpt lat="52.286912544419" lon="4.53162981093">
        <ele>0</ele>
        <time>2019-04-21T15:43:49Z</time>
      </trkpt>
      <trkpt lat="52.286628900923" lon="4.531091022398">
        <ele>0</ele>
        <time>2019-04-21T15:44:06Z</time>
      </trkpt>
      <trkpt lat="52.286120706326" lon="4.531371145496">
        <ele>0</ele>
        <time>2019-04-21T15:44:22Z</time>
      </trkpt>
      <trkpt lat="52.285599771241" lon="4.531712707921">
        <ele>0</ele>
        <time>2019-04-21T15:44:39Z</time>
      </trkpt>
      <trkpt lat="52.285070873351" lon="4.532029962836">
        <ele>0</ele>
        <time>2019-04-21T15:44:51Z</time>
      </trkpt>
      <trkpt lat="52.284543400384" lon="4.532312265228">
        <ele>0</ele>
        <time>2019-04-21T15:45:02Z</time>
      </trkpt>
      <trkpt lat="52.284153306758" lon="4.532563303133">
        <ele>0</ele>
        <time>2019-04-21T15:45:12Z</time>
      </trkpt>
      <trkpt lat="52.28415230093" lon="4.532570930662">
        <ele>0</ele>
        <time>2019-04-21T15:46:17Z</time>
      </trkpt>
      <trkpt lat="52.284135118035" lon="4.532582246227">
        <ele>0</ele>
        <time>2019-04-21T15:46:21Z</time>
      </trkpt>
      <trkpt lat="52.283590462173" lon="4.532902518626">
        <ele>0</ele>
        <time>2019-04-21T15:46:37Z</time>
      </trkpt>
      <trkpt lat="52.283059887903" lon="4.533216336962">
        <ele>0</ele>
        <time>2019-04-21T15:46:49Z</time>
      </trkpt>
      <trkpt lat="52.282555632799" lon="4.533541554682">
        <ele>0</ele>
        <time>2019-04-21T15:47:00Z</time>
      </trkpt>
      <trkpt lat="52.281995051327" lon="4.533841459064">
        <ele>0</ele>
        <time>2019-04-21T15:47:12Z</time>
      </trkpt>
      <trkpt lat="52.281486605273" lon="4.534135579935">
        <ele>0</ele>
        <time>2019-04-21T15:47:22Z</time>
      </trkpt>
      <trkpt lat="52.280931639674" lon="4.534431628643">
        <ele>0</ele>
        <time>2019-04-21T15:47:33Z</time>
      </trkpt>
      <trkpt lat="52.280400981585" lon="4.534709153352">
        <ele>0</ele>
        <time>2019-04-21T15:47:45Z</time>
      </trkpt>
      <trkpt lat="52.279858085922" lon="4.5350353769">
        <ele>0</ele>
        <time>2019-04-21T15:47:58Z</time>
      </trkpt>
      <trkpt lat="52.279539070808" lon="4.535313320704">
        <ele>0</ele>
        <time>2019-04-21T15:48:06Z</time>
      </trkpt>
      <trkpt lat="52.278995253136" lon="4.535483305636">
        <ele>0</ele>
        <time>2019-04-21T15:48:19Z</time>
      </trkpt>
      <trkpt lat="52.278451184007" lon="4.535742893079">
        <ele>0</ele>
        <time>2019-04-21T15:48:32Z</time>
      </trkpt>
      <trkpt lat="52.277918765719" lon="4.535988818025">
        <ele>0</ele>
        <time>2019-04-21T15:48:45Z</time>
      </trkpt>
      <trkpt lat="52.277814327245" lon="4.536106499901">
        <ele>0</ele>
        <time>2019-04-21T15:48:50Z</time>
      </trkpt>
      <trkpt lat="52.2777678077" lon="4.536009018404">
        <ele>0</ele>
        <time>2019-04-21T15:48:58Z</time>
      </trkpt>
      <trkpt lat="52.277684491614" lon="4.535820677111">
        <ele>0</ele>
        <time>2019-04-21T15:49:06Z</time>
      </trkpt>
      <trkpt lat="52.27720873497" lon="4.536259804852">
        <ele>0</ele>
        <time>2019-04-21T15:49:29Z</time>
      </trkpt>
      <trkpt lat="52.276996756719" lon="4.53645778533">
        <ele>0</ele>
        <time>2019-04-21T15:49:36Z</time>
      </trkpt>
      <trkpt lat="52.276681345822" lon="4.537182735861">
        <ele>0</ele>
        <time>2019-04-21T15:49:50Z</time>
      </trkpt>
      <trkpt lat="52.276715795431" lon="4.537125655122">
        <ele>0</ele>
        <time>2019-04-21T15:50:10Z</time>
      </trkpt>
      <trkpt lat="52.277074037837" lon="4.536400201677">
        <ele>0</ele>
        <time>2019-04-21T15:50:30Z</time>
      </trkpt>
      <trkpt lat="52.277671583488" lon="4.535869292131">
        <ele>0</ele>
        <time>2019-04-21T15:50:45Z</time>
      </trkpt>
      <trkpt lat="52.277726065838" lon="4.535679609734">
        <ele>0</ele>
        <time>2019-04-21T15:50:49Z</time>
      </trkpt>
      <trkpt lat="52.277659597371" lon="4.535627222859">
        <ele>0</ele>
        <time>2019-04-21T15:50:51Z</time>
      </trkpt>
      <trkpt lat="52.277542837504" lon="4.535722441243">
        <ele>0</ele>
        <time>2019-04-21T15:50:54Z</time>
      </trkpt>
      <trkpt lat="52.277385006327" lon="4.535920337902">
        <ele>0</ele>
        <time>2019-04-21T15:50:58Z</time>
      </trkpt>
      <trkpt lat="52.27729674492" lon="4.535956044796">
        <ele>0</ele>
        <time>2019-04-21T15:51:00Z</time>
      </trkpt>
      <trkpt lat="52.277209740798" lon="4.535928133069">
        <ele>0</ele>
        <time>2019-04-21T15:51:02Z</time>
      </trkpt>
      <trkpt lat="52.276692577568" lon="4.535512055553">
        <ele>0</ele>
        <time>2019-04-21T15:51:15Z</time>
      </trkpt>
      <trkpt lat="52.276176336347" lon="4.535078208409">
        <ele>0</ele>
        <time>2019-04-21T15:51:26Z</time>
      </trkpt>
      <trkpt lat="52.275680295505" lon="4.534647881663">
        <ele>0</ele>
        <time>2019-04-21T15:51:36Z</time>
      </trkpt>
      <trkpt lat="52.275183584111" lon="4.534278072235">
        <ele>0</ele>
        <time>2019-04-21T15:51:47Z</time>
      </trkpt>
      <trkpt lat="52.274685531613" lon="4.53379988484">
        <ele>0</ele>
        <time>2019-04-21T15:52:00Z</time>
      </trkpt>
      <trkpt lat="52.274213630643" lon="4.533354554493">
        <ele>0</ele>
        <time>2019-04-21T15:52:14Z</time>
      </trkpt>
      <trkpt lat="52.273698143793" lon="4.532946355963">
        <ele>0</ele>
        <time>2019-04-21T15:52:26Z</time>
      </trkpt>
      <trkpt lat="52.273220459312" lon="4.532532457741">
        <ele>0</ele>
        <time>2019-04-21T15:52:42Z</time>
      </trkpt>
      <trkpt lat="52.272858193594" lon="4.532183351606">
        <ele>0</ele>
        <time>2019-04-21T15:52:51Z</time>
      </trkpt>
      <trkpt lat="52.272353267938" lon="4.531736847793">
        <ele>0</ele>
        <time>2019-04-21T15:53:03Z</time>
      </trkpt>
      <trkpt lat="52.271868961756" lon="4.53124424353">
        <ele>0</ele>
        <time>2019-04-21T15:53:14Z</time>
      </trkpt>
      <trkpt lat="52.271369735792" lon="4.530800086649">
        <ele>0</ele>
        <time>2019-04-21T15:53:25Z</time>
      </trkpt>
      <trkpt lat="52.27090806074" lon="4.530337573407">
        <ele>0</ele>
        <time>2019-04-21T15:53:35Z</time>
      </trkpt>
      <trkpt lat="52.270437919969" lon="4.529856787623">
        <ele>0</ele>
        <time>2019-04-21T15:53:46Z</time>
      </trkpt>
      <trkpt lat="52.269942214403" lon="4.529377510581">
        <ele>0</ele>
        <time>2019-04-21T15:53:58Z</time>
      </trkpt>
      <trkpt lat="52.269514402227" lon="4.528977610132">
        <ele>0</ele>
        <time>2019-04-21T15:54:08Z</time>
      </trkpt>
      <trkpt lat="52.269036717746" lon="4.528492801036">
        <ele>0</ele>
        <time>2019-04-21T15:54:19Z</time>
      </trkpt>
      <trkpt lat="52.26854687951" lon="4.52803229945">
        <ele>0</ele>
        <time>2019-04-21T15:54:30Z</time>
      </trkpt>
      <trkpt lat="52.268060394034" lon="4.527544137594">
        <ele>0</ele>
        <time>2019-04-21T15:54:42Z</time>
      </trkpt>
      <trkpt lat="52.267584134476" lon="4.527108362613">
        <ele>0</ele>
        <time>2019-04-21T15:54:55Z</time>
      </trkpt>
      <trkpt lat="52.267116508275" lon="4.526654482728">
        <ele>0</ele>
        <time>2019-04-21T15:55:07Z</time>
      </trkpt>
      <trkpt lat="52.266650558454" lon="4.526187778536">
        <ele>0</ele>
        <time>2019-04-21T15:55:20Z</time>
      </trkpt>
      <trkpt lat="52.266162983331" lon="4.52572057143">
        <ele>0</ele>
        <time>2019-04-21T15:55:31Z</time>
      </trkpt>
      <trkpt lat="52.265691417637" lon="4.525271972142">
        <ele>0</ele>
        <time>2019-04-21T15:55:41Z</time>
      </trkpt>
      <trkpt lat="52.265195292976" lon="4.52479604786">
        <ele>0</ele>
        <time>2019-04-21T15:55:52Z</time>
      </trkpt>
      <trkpt lat="52.264693049528" lon="4.524328086383">
        <ele>0</ele>
        <time>2019-04-21T15:56:03Z</time>
      </trkpt>
      <trkpt lat="52.264197679238" lon="4.523878984181">
        <ele>0</ele>
        <time>2019-04-21T15:56:14Z</time>
      </trkpt>
      <trkpt lat="52.263722090232" lon="4.523429211427">
        <ele>0</ele>
        <time>2019-04-21T15:56:26Z</time>
      </trkpt>
      <trkpt lat="52.263239963344" lon="4.522955214982">
        <ele>0</ele>
        <time>2019-04-21T15:56:38Z</time>
      </trkpt>
      <trkpt lat="52.262892114494" lon="4.522588087762">
        <ele>0</ele>
        <time>2019-04-21T15:56:47Z</time>
      </trkpt>
      <trkpt lat="52.26239372672" lon="4.522113672222">
        <ele>0</ele>
        <time>2019-04-21T15:57:00Z</time>
      </trkpt>
      <trkpt lat="52.26191260566" lon="4.52167881925">
        <ele>0</ele>
        <time>2019-04-21T15:57:12Z</time>
      </trkpt>
      <trkpt lat="52.261445398554" lon="4.52122452027">
        <ele>0</ele>
        <time>2019-04-21T15:57:24Z</time>
      </trkpt>
      <trkpt lat="52.260940137622" lon="4.520747506341">
        <ele>0</ele>
        <time>2019-04-21T15:57:35Z</time>
      </trkpt>
      <trkpt lat="52.260486257737" lon="4.52026563091">
        <ele>0</ele>
        <time>2019-04-21T15:57:45Z</time>
      </trkpt>
      <trkpt lat="52.260069342031" lon="4.519698679194">
        <ele>0</ele>
        <time>2019-04-21T15:57:55Z</time>
      </trkpt>
      <trkpt lat="52.259639015285" lon="4.519146479622">
        <ele>0</ele>
        <time>2019-04-21T15:58:05Z</time>
      </trkpt>
      <trkpt lat="52.259426617939" lon="4.518879599926">
        <ele>0</ele>
        <time>2019-04-21T15:58:10Z</time>
      </trkpt>
      <trkpt lat="52.259335422867" lon="4.518771724873">
        <ele>0</ele>
        <time>2019-04-21T15:58:12Z</time>
      </trkpt>
      <trkpt lat="52.258908700338" lon="4.518159594716">
        <ele>0</ele>
        <time>2019-04-21T15:58:21Z</time>
      </trkpt>
      <trkpt lat="52.25846010105" lon="4.517562384341">
        <ele>0</ele>
        <time>2019-04-21T15:58:31Z</time>
      </trkpt>
      <trkpt lat="52.258022901146" lon="4.517003143973">
        <ele>0</ele>
        <time>2019-04-21T15:58:42Z</time>
      </trkpt>
      <trkpt lat="52.257700533272" lon="4.516587737009">
        <ele>0</ele>
        <time>2019-04-21T15:58:51Z</time>
      </trkpt>
      <trkpt lat="52.257254700011" lon="4.516011313746">
        <ele>0</ele>
        <time>2019-04-21T15:59:03Z</time>
      </trkpt>
      <trkpt lat="52.256816745736" lon="4.515489037557">
        <ele>0</ele>
        <time>2019-04-21T15:59:15Z</time>
      </trkpt>
      <trkpt lat="52.256384574972" lon="4.514935496881">
        <ele>0</ele>
        <time>2019-04-21T15:59:27Z</time>
      </trkpt>
      <trkpt lat="52.255963216859" lon="4.514336861583">
        <ele>0</ele>
        <time>2019-04-21T15:59:38Z</time>
      </trkpt>
      <trkpt lat="52.255523167109" lon="4.513749290393">
        <ele>0</ele>
        <time>2019-04-21T15:59:50Z</time>
      </trkpt>
      <trkpt lat="52.255472456614" lon="4.513639655141">
        <ele>0</ele>
        <time>2019-04-21T15:59:52Z</time>
      </trkpt>
      <trkpt lat="52.255465080542" lon="4.513500767058">
        <ele>0</ele>
        <time>2019-04-21T15:59:54Z</time>
      </trkpt>
      <trkpt lat="52.255554515415" lon="4.513336565637">
        <ele>0</ele>
        <time>2019-04-21T15:59:57Z</time>
      </trkpt>
      <trkpt lat="52.255735648274" lon="4.513112182174">
        <ele>0</ele>
        <time>2019-04-21T16:00:02Z</time>
      </trkpt>
      <trkpt lat="52.25606539222" lon="4.51234808817">
        <ele>0</ele>
        <time>2019-04-21T16:00:15Z</time>
      </trkpt>
      <trkpt lat="52.256396980184" lon="4.511563374692">
        <ele>0</ele>
        <time>2019-04-21T16:00:26Z</time>
      </trkpt>
      <trkpt lat="52.256705517923" lon="4.510764076708">
        <ele>0</ele>
        <time>2019-04-21T16:00:37Z</time>
      </trkpt>
      <trkpt lat="52.256978684044" lon="4.509993780098">
        <ele>0</ele>
        <time>2019-04-21T16:00:48Z</time>
      </trkpt>
      <trkpt lat="52.257289568715" lon="4.509194649752">
        <ele>0</ele>
        <time>2019-04-21T16:01:00Z</time>
      </trkpt>
      <trkpt lat="52.257369364403" lon="4.508957777258">
        <ele>0</ele>
        <time>2019-04-21T16:01:04Z</time>
      </trkpt>
      <trkpt lat="52.257666418939" lon="4.508211285244">
        <ele>0</ele>
        <time>2019-04-21T16:01:16Z</time>
      </trkpt>
      <trkpt lat="52.257974537583" lon="4.507415088563">
        <ele>0</ele>
        <time>2019-04-21T16:01:29Z</time>
      </trkpt>
      <trkpt lat="52.258026673001" lon="4.507302603465">
        <ele>0</ele>
        <time>2019-04-21T16:01:31Z</time>
      </trkpt>
      <trkpt lat="52.258335965111" lon="4.506538425642">
        <ele>0</ele>
        <time>2019-04-21T16:01:44Z</time>
      </trkpt>
      <trkpt lat="52.258656824243" lon="4.505758070752">
        <ele>0</ele>
        <time>2019-04-21T16:01:57Z</time>
      </trkpt>
      <trkpt lat="52.258932169658" lon="4.5049778835">
        <ele>0</ele>
        <time>2019-04-21T16:02:09Z</time>
      </trkpt>
      <trkpt lat="52.259216399887" lon="4.504203479759">
        <ele>0</ele>
        <time>2019-04-21T16:02:21Z</time>
      </trkpt>
      <trkpt lat="52.259460480815" lon="4.503835095254">
        <ele>0</ele>
        <time>2019-04-21T16:02:30Z</time>
      </trkpt>
      <trkpt lat="52.25962518515" lon="4.503722191061">
        <ele>0</ele>
        <time>2019-04-21T16:02:35Z</time>
      </trkpt>
      <trkpt lat="52.2596461399" lon="4.503598138941">
        <ele>0</ele>
        <time>2019-04-21T16:02:37Z</time>
      </trkpt>
      <trkpt lat="52.259594423577" lon="4.503262611484">
        <ele>0</ele>
        <time>2019-04-21T16:02:43Z</time>
      </trkpt>
      <trkpt lat="52.259840264704" lon="4.502431378461">
        <ele>0</ele>
        <time>2019-04-21T16:03:00Z</time>
      </trkpt>
      <trkpt lat="52.259876139236" lon="4.502311014377">
        <ele>0</ele>
        <time>2019-04-21T16:03:02Z</time>
      </trkpt>
      <trkpt lat="52.260110664798" lon="4.501474333119">
        <ele>0</ele>
        <time>2019-04-21T16:03:15Z</time>
      </trkpt>
      <trkpt lat="52.260355332459" lon="4.500661540276">
        <ele>0</ele>
        <time>2019-04-21T16:03:28Z</time>
      </trkpt>
      <trkpt lat="52.260420878917" lon="4.500435312795">
        <ele>0</ele>
        <time>2019-04-21T16:03:31Z</time>
      </trkpt>
      <trkpt lat="52.260471673231" lon="4.500311093037">
        <ele>0</ele>
        <time>2019-04-21T16:03:33Z</time>
      </trkpt>
      <trkpt lat="52.260727153543" lon="4.499499976574">
        <ele>0</ele>
        <time>2019-04-21T16:03:47Z</time>
      </trkpt>
      <trkpt lat="52.260796890951" lon="4.499067386715">
        <ele>0</ele>
        <time>2019-04-21T16:03:53Z</time>
      </trkpt>
      <trkpt lat="52.26091851232" lon="4.498192316355">
        <ele>0</ele>
        <time>2019-04-21T16:04:09Z</time>
      </trkpt>
      <trkpt lat="52.261071817271" lon="4.497317162176">
        <ele>0</ele>
        <time>2019-04-21T16:04:28Z</time>
      </trkpt>
      <trkpt lat="52.261289411395" lon="4.496518450925">
        <ele>0</ele>
        <time>2019-04-21T16:04:46Z</time>
      </trkpt>
      <trkpt lat="52.261580347144" lon="4.495718147113">
        <ele>0.6</ele>
        <time>2019-04-21T16:05:09Z</time>
      </trkpt>
      <trkpt lat="52.261828870479" lon="4.494878951285">
        <ele>0.6</ele>
        <time>2019-04-21T16:05:24Z</time>
      </trkpt>
      <trkpt lat="52.261940014473" lon="4.494516350291">
        <ele>0</ele>
        <time>2019-04-21T16:05:31Z</time>
      </trkpt>
      <trkpt lat="52.262157524778" lon="4.493682770336">
        <ele>0</ele>
        <time>2019-04-21T16:05:45Z</time>
      </trkpt>
      <trkpt lat="52.262253162257" lon="4.493328132147">
        <ele>0</ele>
        <time>2019-04-21T16:05:57Z</time>
      </trkpt>
      <trkpt lat="52.262241762873" lon="4.493485376591">
        <ele>0</ele>
        <time>2019-04-21T16:12:55Z</time>
      </trkpt>
      <trkpt lat="52.262266573297" lon="4.493488394075">
        <ele>0</ele>
        <time>2019-04-21T16:12:56Z</time>
      </trkpt>
      <trkpt lat="52.262420129705" lon="4.492648024781">
        <ele>0</ele>
        <time>2019-04-21T16:13:16Z</time>
      </trkpt>
      <trkpt lat="52.262869986278" lon="4.493068628523">
        <ele>0</ele>
        <time>2019-04-21T16:13:34Z</time>
      </trkpt>
      <trkpt lat="52.262866884975" lon="4.493024791186">
        <ele>0</ele>
        <time>2019-04-21T16:13:37Z</time>
      </trkpt>
      <trkpt lat="52.262436725867" lon="4.492492121441">
        <ele>0</ele>
        <time>2019-04-21T16:13:56Z</time>
      </trkpt>
      <trkpt lat="52.26263931639" lon="4.491695673303">
        <ele>0</ele>
        <time>2019-04-21T16:14:11Z</time>
      </trkpt>
      <trkpt lat="52.26286730407" lon="4.49086695485">
        <ele>0</ele>
        <time>2019-04-21T16:14:26Z</time>
      </trkpt>
      <trkpt lat="52.262920361497" lon="4.490578282214">
        <ele>0</ele>
        <time>2019-04-21T16:14:36Z</time>
      </trkpt>
      <trkpt lat="52.262991272371" lon="4.490525979158">
        <ele>0</ele>
        <time>2019-04-21T16:14:40Z</time>
      </trkpt>
      <trkpt lat="52.263011724207" lon="4.490559925853">
        <ele>0.2</ele>
        <time>2019-04-21T16:14:42Z</time>
      </trkpt>
      <trkpt lat="52.262984231575" lon="4.490564452079">
        <ele>0.2</ele>
        <time>2019-04-21T16:14:44Z</time>
      </trkpt>
      <trkpt lat="52.262867555527" lon="4.489680664543">
        <ele>0.4</ele>
        <time>2019-04-21T16:14:59Z</time>
      </trkpt>
      <trkpt lat="52.26307266062" lon="4.488802325242">
        <ele>0.2</ele>
        <time>2019-04-21T16:15:11Z</time>
      </trkpt>
      <trkpt lat="52.263147762444" lon="4.487907138322">
        <ele>0</ele>
        <time>2019-04-21T16:15:21Z</time>
      </trkpt>
      <trkpt lat="52.263251530366" lon="4.487039863129">
        <ele>0</ele>
        <time>2019-04-21T16:15:31Z</time>
      </trkpt>
      <trkpt lat="52.263462335151" lon="4.486224388078">
        <ele>0</ele>
        <time>2019-04-21T16:15:43Z</time>
      </trkpt>
      <trkpt lat="52.263757545669" lon="4.485401285498">
        <ele>0</ele>
        <time>2019-04-21T16:15:56Z</time>
      </trkpt>
      <trkpt lat="52.26400221333" lon="4.484621684979">
        <ele>0</ele>
        <time>2019-04-21T16:16:06Z</time>
      </trkpt>
      <trkpt lat="52.264267416646" lon="4.483783159703">
        <ele>0</ele>
        <time>2019-04-21T16:16:17Z</time>
      </trkpt>
      <trkpt lat="52.264368334722" lon="4.483401280339">
        <ele>0</ele>
        <time>2019-04-21T16:16:23Z</time>
      </trkpt>
      <trkpt lat="52.264456344672" lon="4.482910603913">
        <ele>0</ele>
        <time>2019-04-21T16:16:30Z</time>
      </trkpt>
      <trkpt lat="52.264446286392" lon="4.482397966909">
        <ele>0</ele>
        <time>2019-04-21T16:16:38Z</time>
      </trkpt>
      <trkpt lat="52.264098521361" lon="4.48172481652">
        <ele>0</ele>
        <time>2019-04-21T16:16:58Z</time>
      </trkpt>
      <trkpt lat="52.264084439769" lon="4.481746693279">
        <ele>0</ele>
        <time>2019-04-21T16:17:08Z</time>
      </trkpt>
      <trkpt lat="52.264464475115" lon="4.482452197802">
        <ele>0</ele>
        <time>2019-04-21T16:17:22Z</time>
      </trkpt>
      <trkpt lat="52.264880384993" lon="4.483044630494">
        <ele>0</ele>
        <time>2019-04-21T16:17:33Z</time>
      </trkpt>
      <trkpt lat="52.265140726807" lon="4.483331878207">
        <ele>0</ele>
        <time>2019-04-21T16:17:39Z</time>
      </trkpt>
      <trkpt lat="52.265224210531" lon="4.483356101898">
        <ele>0</ele>
        <time>2019-04-21T16:17:41Z</time>
      </trkpt>
      <trkpt lat="52.265306856065" lon="4.483286532128">
        <ele>0</ele>
        <time>2019-04-21T16:17:43Z</time>
      </trkpt>
      <trkpt lat="52.265379443319" lon="4.483164910759">
        <ele>0</ele>
        <time>2019-04-21T16:17:45Z</time>
      </trkpt>
      <trkpt lat="52.265718072079" lon="4.48239620671">
        <ele>0</ele>
        <time>2019-04-21T16:17:56Z</time>
      </trkpt>
      <trkpt lat="52.265757131733" lon="4.482344658025">
        <ele>0</ele>
        <time>2019-04-21T16:17:57Z</time>
      </trkpt>
      <trkpt lat="52.265891242133" lon="4.482331414623">
        <ele>0</ele>
        <time>2019-04-21T16:18:00Z</time>
      </trkpt>
      <trkpt lat="52.266310923866" lon="4.482970953593">
        <ele>0</ele>
        <time>2019-04-21T16:18:13Z</time>
      </trkpt>
      <trkpt lat="52.266431120312" lon="4.48312040287">
        <ele>0</ele>
        <time>2019-04-21T16:18:16Z</time>
      </trkpt>
      <trkpt lat="52.26650756324" lon="4.483133227177">
        <ele>0</ele>
        <time>2019-04-21T16:18:18Z</time>
      </trkpt>
      <trkpt lat="52.266578893209" lon="4.48304915672">
        <ele>0</ele>
        <time>2019-04-21T16:18:20Z</time>
      </trkpt>
      <trkpt lat="52.266815849522" lon="4.482817732461">
        <ele>0</ele>
        <time>2019-04-21T16:18:27Z</time>
      </trkpt>
      <trkpt lat="52.266885670749" lon="4.482897611968">
        <ele>0</ele>
        <time>2019-04-21T16:18:29Z</time>
      </trkpt>
      <trkpt lat="52.267276015832" lon="4.483547293037">
        <ele>0</ele>
        <time>2019-04-21T16:18:43Z</time>
      </trkpt>
      <trkpt lat="52.267450778447" lon="4.483616359893">
        <ele>0</ele>
        <time>2019-04-21T16:18:49Z</time>
      </trkpt>
      <trkpt lat="52.267513475059" lon="4.483513011066">
        <ele>0</ele>
        <time>2019-04-21T16:18:51Z</time>
      </trkpt>
      <trkpt lat="52.267902981952" lon="4.482868359137">
        <ele>0</ele>
        <time>2019-04-21T16:19:03Z</time>
      </trkpt>
      <trkpt lat="52.268296176881" lon="4.482232424384">
        <ele>0</ele>
        <time>2019-04-21T16:19:15Z</time>
      </trkpt>
      <trkpt lat="52.268699849185" lon="4.48159657345">
        <ele>0</ele>
        <time>2019-04-21T16:19:25Z</time>
      </trkpt>
      <trkpt lat="52.269055157926" lon="4.480936415006">
        <ele>0</ele>
        <time>2019-04-21T16:19:35Z</time>
      </trkpt>
      <trkpt lat="52.269452627624" lon="4.480239376202">
        <ele>0</ele>
        <time>2019-04-21T16:19:47Z</time>
      </trkpt>
      <trkpt lat="52.269854204453" lon="4.479571254953">
        <ele>0</ele>
        <time>2019-04-21T16:20:00Z</time>
      </trkpt>
      <trkpt lat="52.270058806632" lon="4.4792538324">
        <ele>0</ele>
        <time>2019-04-21T16:20:07Z</time>
      </trkpt>
      <trkpt lat="52.270479410374" lon="4.478616640362">
        <ele>0</ele>
        <time>2019-04-21T16:20:21Z</time>
      </trkpt>
      <trkpt lat="52.27089381151" lon="4.477997553228">
        <ele>0</ele>
        <time>2019-04-21T16:20:34Z</time>
      </trkpt>
      <trkpt lat="52.271297651452" lon="4.477394978437">
        <ele>0</ele>
        <time>2019-04-21T16:20:47Z</time>
      </trkpt>
      <trkpt lat="52.271316426908" lon="4.477303448089">
        <ele>0</ele>
        <time>2019-04-21T16:20:49Z</time>
      </trkpt>
      <trkpt lat="52.270961034348" lon="4.476663406205">
        <ele>0</ele>
        <time>2019-04-21T16:21:05Z</time>
      </trkpt>
      <trkpt lat="52.270751905943" lon="4.476382780193">
        <ele>0</ele>
        <time>2019-04-21T16:21:11Z</time>
      </trkpt>
      <trkpt lat="52.270652077514" lon="4.476225116654">
        <ele>0</ele>
        <time>2019-04-21T16:21:14Z</time>
      </trkpt>
      <trkpt lat="52.270303306655" lon="4.475735865151">
        <ele>0</ele>
        <time>2019-04-21T16:21:23Z</time>
      </trkpt>
      <trkpt lat="52.269888067329" lon="4.475086938453">
        <ele>0</ele>
        <time>2019-04-21T16:21:34Z</time>
      </trkpt>
      <trkpt lat="52.269490178536" lon="4.474480675626">
        <ele>0</ele>
        <time>2019-04-21T16:21:45Z</time>
      </trkpt>
      <trkpt lat="52.269102096566" lon="4.47383241948">
        <ele>0</ele>
        <time>2019-04-21T16:21:57Z</time>
      </trkpt>
      <trkpt lat="52.269029257855" lon="4.473721275486">
        <ele>0</ele>
        <time>2019-04-21T16:21:59Z</time>
      </trkpt>
      <trkpt lat="52.268900763328" lon="4.473507453217">
        <ele>0</ele>
        <time>2019-04-21T16:22:03Z</time>
      </trkpt>
      <trkpt lat="52.268524332199" lon="4.472877972527">
        <ele>0</ele>
        <time>2019-04-21T16:22:14Z</time>
      </trkpt>
      <trkpt lat="52.268124850845" lon="4.472223513775">
        <ele>0</ele>
        <time>2019-04-21T16:22:27Z</time>
      </trkpt>
      <trkpt lat="52.267745737508" lon="4.471578275113">
        <ele>0</ele>
        <time>2019-04-21T16:22:42Z</time>
      </trkpt>
      <trkpt lat="52.267437367407" lon="4.47090546">
        <ele>0</ele>
        <time>2019-04-21T16:22:56Z</time>
      </trkpt>
      <trkpt lat="52.267867777972" lon="4.470309758367">
        <ele>0</ele>
        <time>2019-04-21T16:23:10Z</time>
      </trkpt>
      <trkpt lat="52.268267510783" lon="4.469717828589">
        <ele>0</ele>
        <time>2019-04-21T16:23:24Z</time>
      </trkpt>
      <trkpt lat="52.268687360154" lon="4.469070829728">
        <ele>0</ele>
        <time>2019-04-21T16:23:40Z</time>
      </trkpt>
      <trkpt lat="52.269080722721" lon="4.468437493364">
        <ele>0</ele>
        <time>2019-04-21T16:23:54Z</time>
      </trkpt>
      <trkpt lat="52.26926604653" lon="4.46796425129">
        <ele>0</ele>
        <time>2019-04-21T16:24:03Z</time>
      </trkpt>
      <trkpt lat="52.269670137929" lon="4.467339715921">
        <ele>0</ele>
        <time>2019-04-21T16:24:19Z</time>
      </trkpt>
      <trkpt lat="52.270148995876" lon="4.467260087871">
        <ele>0</ele>
        <time>2019-04-21T16:24:35Z</time>
      </trkpt>
      <trkpt lat="52.270621483579" lon="4.467724864226">
        <ele>0</ele>
        <time>2019-04-21T16:24:48Z</time>
      </trkpt>
      <trkpt lat="52.271127079787" lon="4.468118729707">
        <ele>0.2</ele>
        <time>2019-04-21T16:25:07Z</time>
      </trkpt>
      <trkpt lat="52.271632173081" lon="4.468419807555">
        <ele>0.6</ele>
        <time>2019-04-21T16:25:23Z</time>
      </trkpt>
      <trkpt lat="52.272097368531" lon="4.468417544442">
        <ele>3.8</ele>
        <time>2019-04-21T16:25:36Z</time>
      </trkpt>
      <trkpt lat="52.272627858982" lon="4.468236327764">
        <ele>10.4</ele>
        <time>2019-04-21T16:25:52Z</time>
      </trkpt>
      <trkpt lat="52.272852074807" lon="4.468108000875">
        <ele>11</ele>
        <time>2019-04-21T16:25:58Z</time>
      </trkpt>
      <trkpt lat="52.27336395744" lon="4.467737772352">
        <ele>5.6</ele>
        <time>2019-04-21T16:26:10Z</time>
      </trkpt>
      <trkpt lat="52.273770731047" lon="4.467066130705">
        <ele>10.8</ele>
        <time>2019-04-21T16:26:22Z</time>
      </trkpt>
      <trkpt lat="52.274209858788" lon="4.466427094649">
        <ele>6.6</ele>
        <time>2019-04-21T16:26:34Z</time>
      </trkpt>
      <trkpt lat="52.274634066747" lon="4.465760063047">
        <ele>1.6</ele>
        <time>2019-04-21T16:26:44Z</time>
      </trkpt>
      <trkpt lat="52.275049222254" lon="4.465109711426">
        <ele>0</ele>
        <time>2019-04-21T16:26:54Z</time>
      </trkpt>
      <trkpt lat="52.275454487119" lon="4.464473692854">
        <ele>0</ele>
        <time>2019-04-21T16:27:05Z</time>
      </trkpt>
      <trkpt lat="52.275862098916" lon="4.463870615149">
        <ele>0</ele>
        <time>2019-04-21T16:27:16Z</time>
      </trkpt>
      <trkpt lat="52.276253868922" lon="4.463251025101">
        <ele>0</ele>
        <time>2019-04-21T16:27:25Z</time>
      </trkpt>
      <trkpt lat="52.276656703036" lon="4.462596314892">
        <ele>0</ele>
        <time>2019-04-21T16:27:35Z</time>
      </trkpt>
      <trkpt lat="52.277062470815" lon="4.461930456756">
        <ele>0</ele>
        <time>2019-04-21T16:27:48Z</time>
      </trkpt>
      <trkpt lat="52.277439069582" lon="4.461273986348">
        <ele>0</ele>
        <time>2019-04-21T16:28:03Z</time>
      </trkpt>
      <trkpt lat="52.277762610922" lon="4.460509892344">
        <ele>0</ele>
        <time>2019-04-21T16:28:18Z</time>
      </trkpt>
      <trkpt lat="52.277891440725" lon="4.459794245722">
        <ele>0</ele>
        <time>2019-04-21T16:28:34Z</time>
      </trkpt>
      <trkpt lat="52.278002081805" lon="4.458903920304">
        <ele>0</ele>
        <time>2019-04-21T16:28:49Z</time>
      </trkpt>
      <trkpt lat="52.278110962686" lon="4.458023150252">
        <ele>0</ele>
        <time>2019-04-21T16:29:04Z</time>
      </trkpt>
      <trkpt lat="52.278268793863" lon="4.457325273258">
        <ele>0</ele>
        <time>2019-04-21T16:29:24Z</time>
      </trkpt>
      <trkpt lat="52.278270134967" lon="4.457304737603">
        <ele>0</ele>
        <time>2019-04-21T16:29:28Z</time>
      </trkpt>
      <trkpt lat="52.278277175763" lon="4.457264588302">
        <ele>0</ele>
        <time>2019-04-21T16:29:31Z</time>
      </trkpt>
      <trkpt lat="52.278278013953" lon="4.45716501133">
        <ele>0</ele>
        <time>2019-04-21T16:29:41Z</time>
      </trkpt>
      <trkpt lat="52.27830927844" lon="4.457172638859">
        <ele>0</ele>
        <time>2019-04-21T16:30:22Z</time>
      </trkpt>
      <trkpt lat="52.278319588177" lon="4.457176243076">
        <ele>0</ele>
        <time>2019-04-21T16:30:23Z</time>
      </trkpt>
      <trkpt lat="52.278363174057" lon="4.45720692083">
        <ele>0</ele>
        <time>2019-04-21T16:30:27Z</time>
      </trkpt>
      <trkpt lat="52.278298298151" lon="4.457238939688">
        <ele>0</ele>
        <time>2019-04-21T16:47:43Z</time>
      </trkpt>
      <trkpt lat="52.278286395853" lon="4.457325189439">
        <ele>0</ele>
        <time>2019-04-21T16:47:52Z</time>
      </trkpt>
      <trkpt lat="52.278195955152" lon="4.4576033847">
        <ele>0</ele>
        <time>2019-04-21T16:48:02Z</time>
      </trkpt>
      <trkpt lat="52.278191596564" lon="4.457684605311">
        <ele>0</ele>
        <time>2019-04-21T16:48:05Z</time>
      </trkpt>
      <trkpt lat="52.278006105117" lon="4.45856814139">
        <ele>0</ele>
        <time>2019-04-21T16:48:22Z</time>
      </trkpt>
      <trkpt lat="52.277988670765" lon="4.458703760532">
        <ele>0</ele>
        <time>2019-04-21T16:48:24Z</time>
      </trkpt>
      <trkpt lat="52.277960088486" lon="4.459068205544">
        <ele>0</ele>
        <time>2019-04-21T16:48:29Z</time>
      </trkpt>
      <trkpt lat="52.277926393248" lon="4.459356375266">
        <ele>0</ele>
        <time>2019-04-21T16:48:33Z</time>
      </trkpt>
      <trkpt lat="52.277861433523" lon="4.460048887844">
        <ele>0</ele>
        <time>2019-04-21T16:48:43Z</time>
      </trkpt>
      <trkpt lat="52.277623471382" lon="4.460904763653">
        <ele>0</ele>
        <time>2019-04-21T16:48:53Z</time>
      </trkpt>
      <trkpt lat="52.27727495198" lon="4.461576237662">
        <ele>0</ele>
        <time>2019-04-21T16:49:02Z</time>
      </trkpt>
      <trkpt lat="52.276880080671" lon="4.462227930387">
        <ele>0</ele>
        <time>2019-04-21T16:49:11Z</time>
      </trkpt>
      <trkpt lat="52.276457213816" lon="4.46287979075">
        <ele>0</ele>
        <time>2019-04-21T16:49:20Z</time>
      </trkpt>
      <trkpt lat="52.276056810453" lon="4.463518742987">
        <ele>0</ele>
        <time>2019-04-21T16:49:30Z</time>
      </trkpt>
      <trkpt lat="52.275657161461" lon="4.464125257271">
        <ele>0</ele>
        <time>2019-04-21T16:49:41Z</time>
      </trkpt>
      <trkpt lat="52.275240245755" lon="4.464741326921">
        <ele>0</ele>
        <time>2019-04-21T16:49:52Z</time>
      </trkpt>
      <trkpt lat="52.274922487926" lon="4.465275924503">
        <ele>0</ele>
        <time>2019-04-21T16:50:01Z</time>
      </trkpt>
      <trkpt lat="52.274523006572" lon="4.465911607799">
        <ele>0</ele>
        <time>2019-04-21T16:50:12Z</time>
      </trkpt>
      <trkpt lat="52.274110449454" lon="4.466593223907">
        <ele>0</ele>
        <time>2019-04-21T16:50:24Z</time>
      </trkpt>
      <trkpt lat="52.273864021594" lon="4.466997482944">
        <ele>0</ele>
        <time>2019-04-21T16:50:31Z</time>
      </trkpt>
      <trkpt lat="52.273272343273" lon="4.467851850011">
        <ele>0</ele>
        <time>2019-04-21T16:50:48Z</time>
      </trkpt>
      <trkpt lat="52.272716790941" lon="4.468098529328">
        <ele>0</ele>
        <time>2019-04-21T16:50:59Z</time>
      </trkpt>
      <trkpt lat="52.272141708782" lon="4.468341185333">
        <ele>0</ele>
        <time>2019-04-21T16:51:09Z</time>
      </trkpt>
      <trkpt lat="52.271604428992" lon="4.468394075122">
        <ele>0</ele>
        <time>2019-04-21T16:51:18Z</time>
      </trkpt>
      <trkpt lat="52.271234284288" lon="4.468312016321">
        <ele>0</ele>
        <time>2019-04-21T16:51:24Z</time>
      </trkpt>
      <trkpt lat="52.270872353846" lon="4.467993001207">
        <ele>0</ele>
        <time>2019-04-21T16:51:31Z</time>
      </trkpt>
      <trkpt lat="52.27069935143" lon="4.467845395948">
        <ele>0</ele>
        <time>2019-04-21T16:51:36Z</time>
      </trkpt>
      <trkpt lat="52.270568007057" lon="4.467718158706">
        <ele>0</ele>
        <time>2019-04-21T16:51:39Z</time>
      </trkpt>
      <trkpt lat="52.270070289835" lon="4.467233601067">
        <ele>0</ele>
        <time>2019-04-21T16:51:49Z</time>
      </trkpt>
      <trkpt lat="52.269928384268" lon="4.467113153164">
        <ele>0</ele>
        <time>2019-04-21T16:51:52Z</time>
      </trkpt>
      <trkpt lat="52.269829645486" lon="4.46710343016">
        <ele>0</ele>
        <time>2019-04-21T16:51:54Z</time>
      </trkpt>
      <trkpt lat="52.269732834541" lon="4.467175430681">
        <ele>0</ele>
        <time>2019-04-21T16:51:56Z</time>
      </trkpt>
      <trkpt lat="52.269316505568" lon="4.467823351551">
        <ele>0</ele>
        <time>2019-04-21T16:52:06Z</time>
      </trkpt>
      <trkpt lat="52.268921718078" lon="4.468458531933">
        <ele>0</ele>
        <time>2019-04-21T16:52:16Z</time>
      </trkpt>
      <trkpt lat="52.268812334283" lon="4.468635138566">
        <ele>0</ele>
        <time>2019-04-21T16:52:19Z</time>
      </trkpt>
      <trkpt lat="52.268407572332" lon="4.469288004757">
        <ele>0</ele>
        <time>2019-04-21T16:52:30Z</time>
      </trkpt>
      <trkpt lat="52.268224092541" lon="4.469580113972">
        <ele>0</ele>
        <time>2019-04-21T16:52:35Z</time>
      </trkpt>
      <trkpt lat="52.267806841559" lon="4.470224682082">
        <ele>0</ele>
        <time>2019-04-21T16:52:46Z</time>
      </trkpt>
      <trkpt lat="52.267414401001" lon="4.47082834652">
        <ele>0</ele>
        <time>2019-04-21T16:52:56Z</time>
      </trkpt>
      <trkpt lat="52.26697946421" lon="4.471490684258">
        <ele>0</ele>
        <time>2019-04-21T16:53:07Z</time>
      </trkpt>
      <trkpt lat="52.266588448575" lon="4.472119662034">
        <ele>0</ele>
        <time>2019-04-21T16:53:17Z</time>
      </trkpt>
      <trkpt lat="52.266163318607" lon="4.472788537654">
        <ele>0</ele>
        <time>2019-04-21T16:53:28Z</time>
      </trkpt>
      <trkpt lat="52.265757299371" lon="4.473465208441">
        <ele>0</ele>
        <time>2019-04-21T16:53:39Z</time>
      </trkpt>
      <trkpt lat="52.265334516335" lon="4.474133832604">
        <ele>0</ele>
        <time>2019-04-21T16:53:50Z</time>
      </trkpt>
      <trkpt lat="52.264942243415" lon="4.474742107087">
        <ele>0</ele>
        <time>2019-04-21T16:54:00Z</time>
      </trkpt>
      <trkpt lat="52.264508647728" lon="4.475305622224">
        <ele>0</ele>
        <time>2019-04-21T16:54:11Z</time>
      </trkpt>
      <trkpt lat="52.264088211624" lon="4.475867209524">
        <ele>0</ele>
        <time>2019-04-21T16:54:22Z</time>
      </trkpt>
      <trkpt lat="52.263647072227" lon="4.476492918359">
        <ele>0</ele>
        <time>2019-04-21T16:54:34Z</time>
      </trkpt>
      <trkpt lat="52.263243567561" lon="4.47710471324">
        <ele>0</ele>
        <time>2019-04-21T16:54:46Z</time>
      </trkpt>
      <trkpt lat="52.26321180016" lon="4.477145616912">
        <ele>0</ele>
        <time>2019-04-21T16:54:47Z</time>
      </trkpt>
      <trkpt lat="52.262810726245" lon="4.477767134797">
        <ele>0</ele>
        <time>2019-04-21T16:55:00Z</time>
      </trkpt>
      <trkpt lat="52.262862861663" lon="4.478516057562">
        <ele>0</ele>
        <time>2019-04-21T16:55:14Z</time>
      </trkpt>
      <trkpt lat="52.263174416886" lon="4.479291970045">
        <ele>0</ele>
        <time>2019-04-21T16:55:29Z</time>
      </trkpt>
      <trkpt lat="52.263412295208" lon="4.480127813113">
        <ele>0</ele>
        <time>2019-04-21T16:55:44Z</time>
      </trkpt>
      <trkpt lat="52.263633912644" lon="4.480967260398">
        <ele>0</ele>
        <time>2019-04-21T16:55:58Z</time>
      </trkpt>
      <trkpt lat="52.264011265782" lon="4.481660694985">
        <ele>0</ele>
        <time>2019-04-21T16:56:15Z</time>
      </trkpt>
      <trkpt lat="52.264390462938" lon="4.482298641394">
        <ele>0</ele>
        <time>2019-04-21T16:56:28Z</time>
      </trkpt>
      <trkpt lat="52.264451734627" lon="4.482837262288">
        <ele>0</ele>
        <time>2019-04-21T16:56:38Z</time>
      </trkpt>
      <trkpt lat="52.264297591486" lon="4.483721049824">
        <ele>0</ele>
        <time>2019-04-21T16:56:51Z</time>
      </trkpt>
      <trkpt lat="52.26405418111" lon="4.484514145202">
        <ele>0</ele>
        <time>2019-04-21T16:57:02Z</time>
      </trkpt>
      <trkpt lat="52.263791576183" lon="4.485280753776">
        <ele>0</ele>
        <time>2019-04-21T16:57:17Z</time>
      </trkpt>
      <trkpt lat="52.263537101699" lon="4.486066975996">
        <ele>0</ele>
        <time>2019-04-21T16:57:32Z</time>
      </trkpt>
      <trkpt lat="52.263490833611" lon="4.486234362539">
        <ele>0</ele>
        <time>2019-04-21T16:57:35Z</time>
      </trkpt>
      <trkpt lat="52.263237197317" lon="4.487030140125">
        <ele>0</ele>
        <time>2019-04-21T16:57:49Z</time>
      </trkpt>
      <trkpt lat="52.263134267585" lon="4.487894565472">
        <ele>0</ele>
        <time>2019-04-21T16:58:05Z</time>
      </trkpt>
      <trkpt lat="52.263085736384" lon="4.488823028535">
        <ele>0</ele>
        <time>2019-04-21T16:58:18Z</time>
      </trkpt>
      <trkpt lat="52.26306763148" lon="4.488957725668">
        <ele>0</ele>
        <time>2019-04-21T16:58:20Z</time>
      </trkpt>
      <trkpt lat="52.262844421483" lon="4.489801699179">
        <ele>0</ele>
        <time>2019-04-21T16:58:35Z</time>
      </trkpt>
      <trkpt lat="52.262821455077" lon="4.489987609721">
        <ele>0</ele>
        <time>2019-04-21T16:58:38Z</time>
      </trkpt>
      <trkpt lat="52.263054555716" lon="4.490661179205">
        <ele>0</ele>
        <time>2019-04-21T16:58:55Z</time>
      </trkpt>
      <trkpt lat="52.263552692033" lon="4.491064851509">
        <ele>0</ele>
        <time>2019-04-21T16:59:14Z</time>
      </trkpt>
      <trkpt lat="52.263746900656" lon="4.491113969443">
        <ele>0</ele>
        <time>2019-04-21T16:59:19Z</time>
      </trkpt>
      <trkpt lat="52.263815799874" lon="4.491192004932">
        <ele>0</ele>
        <time>2019-04-21T16:59:21Z</time>
      </trkpt>
      <trkpt lat="52.263871288052" lon="4.491301724003">
        <ele>0</ele>
        <time>2019-04-21T16:59:23Z</time>
      </trkpt>
      <trkpt lat="52.263907749317" lon="4.491432230186">
        <ele>0</ele>
        <time>2019-04-21T16:59:25Z</time>
      </trkpt>
      <trkpt lat="52.263927865877" lon="4.491567011138">
        <ele>0</ele>
        <time>2019-04-21T16:59:27Z</time>
      </trkpt>
      <trkpt lat="52.263913029914" lon="4.49176465634">
        <ele>0</ele>
        <time>2019-04-21T16:59:30Z</time>
      </trkpt>
      <trkpt lat="52.263844214515" lon="4.492651126084">
        <ele>0</ele>
        <time>2019-04-21T16:59:45Z</time>
      </trkpt>
      <trkpt lat="52.263733824892" lon="4.493269626485">
        <ele>0</ele>
        <time>2019-04-21T16:59:58Z</time>
      </trkpt>
      <trkpt lat="52.263603570166" lon="4.493324947025">
        <ele>0</ele>
        <time>2019-04-21T17:00:04Z</time>
      </trkpt>
      <trkpt lat="52.263588818022" lon="4.493532566688">
        <ele>0</ele>
        <time>2019-04-21T17:00:11Z</time>
      </trkpt>
      <trkpt lat="52.263068553489" lon="4.493284713905">
        <ele>0</ele>
        <time>2019-04-21T17:00:33Z</time>
      </trkpt>
      <trkpt lat="52.262785664364" lon="4.493164182183">
        <ele>0</ele>
        <time>2019-04-21T17:00:41Z</time>
      </trkpt>
      <trkpt lat="52.262635376897" lon="4.493527789005">
        <ele>0</ele>
        <time>2019-04-21T17:00:55Z</time>
      </trkpt>
      <trkpt lat="52.262532111889" lon="4.493652427858">
        <ele>0</ele>
        <time>2019-04-21T17:01:15Z</time>
      </trkpt>
      <trkpt lat="52.262018469057" lon="4.49334464449">
        <ele>0</ele>
        <time>2019-04-21T17:01:37Z</time>
      </trkpt>
      <trkpt lat="52.261624603576" lon="4.493080363183">
        <ele>0</ele>
        <time>2019-04-21T17:01:49Z</time>
      </trkpt>
      <trkpt lat="52.261635248589" lon="4.492889758777">
        <ele>0</ele>
        <time>2019-04-21T17:01:58Z</time>
      </trkpt>
    </trkseg>
  </trk>
</gpx>